Time,TemperatureF,DewpointF,PressureIn,WindDirection,WindDirectionDegrees,WindSpeedMPH,WindSpeedGustMPH,Humidity,HourlyPrecipIn,Conditions,Clouds,dailyrainin,SoftwareType,DateUTC
2013-04-24 00:01:00,62.8,59.8,30.14,ENE,63,2.3,0.0,90,0.00,CLR,SCT,0.00,WeatherDisplay:10.37,2013-04-24 04:01:00,
2013-04-24 00:06:00,62.7,59.7,30.13,ENE,63,1.1,0.0,90,0.00,CLR,SCT,0.00,WeatherDisplay:10.37,2013-04-24 04:06:00,
2013-04-24 00:07:00,62.6,59.6,30.13,NE,51,1.1,1.1,90,0.00,CLR,SCT,0.00,WeatherDisplay:10.37,2013-04-24 04:07:00,
2013-04-24 00:11:00,62.6,59.6,30.13,NNE,32,0.0,0.0,90,0.00,CLR,SCT,0.00,WeatherDisplay:10.37,2013-04-24 04:11:00,
2013-04-24 00:12:00,62.5,59.5,30.13,NNE,15,0.0,0.0,90,0.00,CLR,SCT,0.00,WeatherDisplay:10.37,2013-04-24 04:12:00,
2013-04-24 00:16:00,62.4,59.4,30.13,NE,44,1.1,1.1,90,0.00,CLR,SCT,0.00,WeatherDisplay:10.37,2013-04-24 04:16:00,
2013-04-24 00:17:00,62.4,59.4,30.13,NE,44,1.1,1.1,90,0.00,CLR,SCT,0.00,WeatherDisplay:10.37,2013-04-24 04:17:00,
2013-04-24 00:21:00,62.4,59.4,30.13,NNE,29,0.0,0.0,90,0.00,CLR,SCT,0.00,WeatherDisplay:10.37,2013-04-24 04:21:00,
2013-04-24 00:22:00,62.4,59.4,30.13,North,356,1.0,0.0,90,0.00,CLR,SCT,0.00,WeatherDisplay:10.37,2013-04-24 04:22:00,
2013-04-24 00:27:00,62.2,59.5,30.13,NE,43,1.1,0.0,91,0.00,CLR,SCT,0.00,WeatherDisplay:10.37,2013-04-24 04:27:00,
2013-04-24 00:32:00,62.1,59.4,30.13,NE,53,1.1,1.1,91,0.00,CLR,SCT,0.00,WeatherDisplay:10.37,2013-04-24 04:32:00,
2013-04-24 00:37:00,62.0,59.3,30.13,ENE,58,2.3,2.3,91,0.00,CLR,SCT,0.00,WeatherDisplay:10.37,2013-04-24 04:37:00,
2013-04-24 00:42:00,61.8,59.1,30.13,East,89,1.1,0.0,91,0.00,CLR,SCT,0.00,WeatherDisplay:10.37,2013-04-24 04:42:00,
2013-04-24 00:43:00,61.8,59.1,30.13,East,80,1.1,1.1,91,0.00,CLR,SCT,0.00,WeatherDisplay:10.37,2013-04-24 04:43:00,
2013-04-24 00:47:00,61.7,59.0,30.13,ENE,74,0.0,0.0,91,0.00,CLR,SCT,0.00,WeatherDisplay:10.37,2013-04-24 04:47:00,
2013-04-24 00:48:00,61.7,59.0,30.13,ENE,74,0.0,0.0,91,0.00,CLR,SCT,0.00,WeatherDisplay:10.37,2013-04-24 04:48:00,
2013-04-24 00:52:00,61.6,59.3,30.14,NE,38,0.0,0.0,92,0.00,CLR,SCT,0.00,WeatherDisplay:10.37,2013-04-24 04:52:00,
2013-04-24 00:53:00,61.6,59.3,30.14,NE,39,0.0,0.0,92,0.00,CLR,SCT,0.00,WeatherDisplay:10.37,2013-04-24 04:53:00,
2013-04-24 00:57:00,61.4,59.1,30.14,NE,45,1.1,0.0,92,0.00,CLR,SCT,0.00,WeatherDisplay:10.37,2013-04-24 04:57:00,
2013-04-24 00:58:00,61.4,59.1,30.14,NE,46,1.1,0.0,92,0.00,CLR,SCT,0.00,WeatherDisplay:10.37,2013-04-24 04:58:00,
2013-04-24 00:59:00,61.4,59.1,30.13,NE,46,0.0,0.0,92,0.00,CLR,SCT,0.00,WeatherDisplay:10.37,2013-04-24 04:59:00,
2013-04-24 01:03:00,61.3,59.0,30.13,NE,45,0.0,0.0,92,0.00,CLR,SCT,0.00,WeatherDisplay:10.37,2013-04-24 05:03:00,
2013-04-24 01:04:00,61.3,59.0,30.13,NE,45,0.0,0.0,92,0.00,CLR,SCT,0.00,WeatherDisplay:10.37,2013-04-24 05:04:00,
2013-04-24 01:08:00,61.1,58.8,30.13,NE,45,0.0,0.0,92,0.00,CLR,SCT,0.00,WeatherDisplay:10.37,2013-04-24 05:08:00,
2013-04-24 01:09:00,61.1,58.8,30.13,NE,45,0.0,0.0,92,0.00,CLR,SCT,0.00,WeatherDisplay:10.37,2013-04-24 05:09:00,
2013-04-24 01:13:00,60.9,58.6,30.13,NE,45,0.0,0.0,92,0.00,CLR,SCT,0.00,WeatherDisplay:10.37,2013-04-24 05:13:00,
2013-04-24 01:14:00,60.9,58.6,30.13,NE,46,0.0,0.0,92,0.00,CLR,SCT,0.00,WeatherDisplay:10.37,2013-04-24 05:14:00,
2013-04-24 01:15:00,60.9,58.6,30.13,NE,45,0.0,0.0,92,0.00,CLR,SCT,0.00,WeatherDisplay:10.37,2013-04-24 05:15:00,
2013-04-24 01:18:00,60.8,58.5,30.13,ENE,68,0.0,0.0,92,0.00,CLR,SCT,0.00,WeatherDisplay:10.37,2013-04-24 05:18:00,
2013-04-24 01:19:00,60.8,58.5,30.13,ENE,68,0.0,0.0,92,0.00,CLR,SCT,0.00,WeatherDisplay:10.37,2013-04-24 05:19:00,
2013-04-24 01:20:00,60.7,58.7,30.13,ENE,68,0.0,0.0,93,0.00,CLR,SCT,0.00,WeatherDisplay:10.37,2013-04-24 05:20:00,
2013-04-24 01:23:00,60.7,58.7,30.13,ENE,68,0.0,0.0,93,0.00,CLR,SCT,0.00,WeatherDisplay:10.37,2013-04-24 05:23:00,
2013-04-24 01:24:00,60.6,58.6,30.13,ENE,68,0.0,0.0,93,0.00,CLR,SCT,0.00,WeatherDisplay:10.37,2013-04-24 05:24:00,
2013-04-24 01:26:00,60.6,58.6,30.13,ENE,68,0.0,0.0,93,0.00,CLR,SCT,0.00,WeatherDisplay:10.37,2013-04-24 05:26:00,
2013-04-24 01:28:00,60.5,58.5,30.13,ENE,68,0.0,0.0,93,0.00,CLR,SCT,0.00,WeatherDisplay:10.37,2013-04-24 05:28:00,
2013-04-24 01:29:00,60.5,58.5,30.12,NE,44,0.0,0.0,93,0.00,CLR,SCT,0.00,WeatherDisplay:10.37,2013-04-24 05:29:00,
2013-04-24 01:31:00,60.5,58.5,30.12,NE,44,0.0,0.0,93,0.00,CLR,SCT,0.00,WeatherDisplay:10.37,2013-04-24 05:31:00,
2013-04-24 01:33:00,60.4,58.4,30.12,NE,50,1.1,1.1,93,0.00,CLR,SCT,0.00,WeatherDisplay:10.37,2013-04-24 05:33:00,
2013-04-24 01:34:00,60.4,58.4,30.13,NE,49,1.1,0.0,93,0.00,CLR,SCT,0.00,WeatherDisplay:10.37,2013-04-24 05:34:00,
2013-04-24 01:35:00,60.4,58.4,30.13,NE,54,0.0,1.0,93,0.00,CLR,SCT,0.00,WeatherDisplay:10.37,2013-04-24 05:35:00,
2013-04-24 01:36:00,60.3,58.3,30.13,NE,49,0.0,0.0,93,0.00,CLR,SCT,0.00,WeatherDisplay:10.37,2013-04-24 05:36:00,
2013-04-24 01:38:00,60.3,58.6,30.12,East,82,0.0,0.2,94,0.00,CLR,SCT,0.00,WeatherDisplay:10.37,2013-04-24 05:38:00,
2013-04-24 01:40:00,60.4,58.7,30.12,East,82,1.1,0.0,94,0.00,CLR,SCT,0.00,WeatherDisplay:10.37,2013-04-24 05:40:00,
2013-04-24 01:42:00,60.4,58.7,30.12,East,82,0.0,0.0,94,0.00,CLR,SCT,0.00,WeatherDisplay:10.37,2013-04-24 05:42:00,
2013-04-24 01:43:00,60.4,58.7,30.12,East,82,0.0,0.0,94,0.00,CLR,SCT,0.00,WeatherDisplay:10.37,2013-04-24 05:43:00,
2013-04-24 01:45:00,60.4,58.7,30.12,East,82,0.0,0.0,94,0.00,CLR,SCT,0.00,WeatherDisplay:10.37,2013-04-24 05:45:00,
2013-04-24 01:47:00,60.3,58.6,30.12,East,82,0.0,0.0,94,0.00,CLR,SCT,0.00,WeatherDisplay:10.37,2013-04-24 05:47:00,
2013-04-24 01:49:00,60.3,58.6,30.12,East,82,0.0,0.0,94,0.00,CLR,SCT,0.00,WeatherDisplay:10.37,2013-04-24 05:49:00,
2013-04-24 01:50:00,60.3,58.6,30.12,ENE,73,0.0,0.0,94,0.00,CLR,SCT,0.00,WeatherDisplay:10.37,2013-04-24 05:50:00,
2013-04-24 01:51:00,60.2,58.5,30.12,ENE,74,0.0,0.0,94,0.00,CLR,SCT,0.00,WeatherDisplay:10.37,2013-04-24 05:51:00,
2013-04-24 01:52:00,60.2,58.5,30.12,NE,40,0.0,0.0,94,0.00,CLR,SCT,0.00,WeatherDisplay:10.37,2013-04-24 05:52:00,
2013-04-24 01:54:00,60.1,58.4,30.12,NE,40,0.0,0.0,94,0.00,CLR,SCT,0.00,WeatherDisplay:10.37,2013-04-24 05:54:00,
2013-04-24 01:55:00,60.1,58.4,30.12,NE,39,0.0,0.0,94,0.00,CLR,SCT,0.00,WeatherDisplay:10.37,2013-04-24 05:55:00,
2013-04-24 01:56:00,60.1,58.4,30.12,NE,39,0.0,0.0,94,0.00,CLR,SCT,0.00,WeatherDisplay:10.37,2013-04-24 05:56:00,
2013-04-24 01:57:00,60.1,58.4,30.12,NE,39,0.0,0.0,94,0.00,CLR,SCT,0.00,WeatherDisplay:10.37,2013-04-24 05:57:00,
2013-04-24 01:59:00,60.0,58.3,30.12,NE,39,0.0,0.0,94,0.00,CLR,SCT,0.00,WeatherDisplay:10.37,2013-04-24 05:59:00,
2013-04-24 02:00:00,60.0,58.3,30.12,NE,38,0.0,0.0,94,0.00,CLR,SCT,0.00,WeatherDisplay:10.37,2013-04-24 06:00:00,
2013-04-24 02:01:00,60.0,58.3,30.12,NE,39,0.0,0.0,94,0.00,CLR,SCT,0.00,WeatherDisplay:10.37,2013-04-24 06:01:00,
2013-04-24 02:03:00,59.9,58.2,30.12,NE,36,0.0,0.0,94,0.00,CLR,SCT,0.00,WeatherDisplay:10.37,2013-04-24 06:03:00,
2013-04-24 02:04:00,59.9,58.2,30.12,NE,36,0.0,0.0,94,0.00,CLR,SCT,0.00,WeatherDisplay:10.37,2013-04-24 06:04:00,
2013-04-24 02:05:00,59.9,58.2,30.12,NE,36,0.0,0.0,94,0.00,CLR,SCT,0.00,WeatherDisplay:10.37,2013-04-24 06:05:00,
2013-04-24 02:06:00,59.8,58.1,30.12,NE,36,0.0,0.0,94,0.00,CLR,SCT,0.00,WeatherDisplay:10.37,2013-04-24 06:06:00,
2013-04-24 02:08:00,59.7,58.0,30.12,NE,36,0.0,0.0,94,0.00,CLR,SCT,0.00,WeatherDisplay:10.37,2013-04-24 06:08:00,
2013-04-24 02:09:00,59.7,58.0,30.12,NE,36,0.0,0.0,94,0.00,CLR,SCT,0.00,WeatherDisplay:10.37,2013-04-24 06:09:00,
2013-04-24 02:10:00,59.6,57.9,30.12,NNE,32,0.0,0.0,94,0.00,CLR,SCT,0.00,WeatherDisplay:10.37,2013-04-24 06:10:00,
2013-04-24 02:11:00,59.6,57.9,30.12,NNE,32,0.0,0.0,94,0.00,CLR,SCT,0.00,WeatherDisplay:10.37,2013-04-24 06:11:00,
2013-04-24 02:14:00,59.5,57.8,30.11,NNE,33,0.0,0.0,94,0.00,CLR,SCT,0.00,WeatherDisplay:10.37,2013-04-24 06:14:00,
2013-04-24 02:15:00,59.5,57.8,30.11,NNE,32,0.0,0.0,94,0.00,CLR,SCT,0.00,WeatherDisplay:10.37,2013-04-24 06:15:00,
2013-04-24 02:17:00,59.4,57.7,30.11,NNE,33,0.0,0.0,94,0.00,CLR,SCT,0.00,WeatherDisplay:10.37,2013-04-24 06:17:00,
2013-04-24 02:19:00,59.3,57.6,30.11,NNE,32,0.0,0.0,94,0.00,CLR,SCT,0.00,WeatherDisplay:10.37,2013-04-24 06:19:00,
2013-04-24 02:20:00,59.3,57.6,30.11,NNE,33,0.0,0.0,94,0.00,CLR,SCT,0.00,WeatherDisplay:10.37,2013-04-24 06:20:00,
2013-04-24 02:21:00,59.3,57.6,30.11,NNE,33,0.0,0.0,94,0.00,CLR,SCT,0.00,WeatherDisplay:10.37,2013-04-24 06:21:00,
2013-04-24 02:22:00,59.2,57.5,30.11,NNE,33,0.0,0.0,94,0.00,CLR,SCT,0.00,WeatherDisplay:10.37,2013-04-24 06:22:00,
2013-04-24 02:24:00,59.1,57.4,30.11,NNE,32,0.0,0.0,94,0.00,CLR,SCT,0.00,WeatherDisplay:10.37,2013-04-24 06:24:00,
2013-04-24 02:25:00,59.1,57.4,30.11,NNE,32,0.0,0.0,94,0.00,CLR,SCT,0.00,WeatherDisplay:10.37,2013-04-24 06:25:00,
2013-04-24 02:26:00,59.0,57.3,30.11,NNE,33,0.0,0.0,94,0.00,CLR,SCT,0.00,WeatherDisplay:10.37,2013-04-24 06:26:00,
2013-04-24 02:27:00,59.0,57.6,30.11,NNE,25,0.0,0.0,95,0.00,CLR,SCT,0.00,WeatherDisplay:10.37,2013-04-24 06:27:00,
2013-04-24 02:29:00,58.9,57.5,30.11,NNE,25,0.0,0.0,95,0.00,CLR,SCT,0.00,WeatherDisplay:10.37,2013-04-24 06:29:00,
2013-04-24 02:30:00,58.9,57.5,30.11,NNE,25,0.0,0.0,95,0.00,CLR,SCT,0.00,WeatherDisplay:10.37,2013-04-24 06:30:00,
2013-04-24 02:31:00,58.9,57.5,30.11,NNE,25,0.0,0.0,95,0.00,CLR,SCT,0.00,WeatherDisplay:10.37,2013-04-24 06:31:00,
2013-04-24 02:32:00,58.8,57.4,30.11,NNE,24,0.0,0.0,95,0.00,CLR,SCT,0.00,WeatherDisplay:10.37,2013-04-24 06:32:00,
2013-04-24 02:34:00,58.8,57.4,30.11,NNE,25,0.0,0.0,95,0.00,CLR,SCT,0.00,WeatherDisplay:10.37,2013-04-24 06:34:00,
2013-04-24 02:35:00,58.7,57.3,30.11,NNE,24,0.0,0.0,95,0.00,CLR,SCT,0.00,WeatherDisplay:10.37,2013-04-24 06:35:00,
2013-04-24 02:36:00,58.7,57.3,30.11,NNE,25,0.0,0.0,95,0.00,CLR,SCT,0.00,WeatherDisplay:10.37,2013-04-24 06:36:00,
2013-04-24 02:37:00,58.7,57.3,30.11,NNE,24,0.0,0.0,95,0.00,CLR,SCT,0.00,WeatherDisplay:10.37,2013-04-24 06:37:00,
2013-04-24 02:38:00,58.7,57.3,30.11,NNE,25,0.0,0.0,95,0.00,CLR,SCT,0.00,WeatherDisplay:10.37,2013-04-24 06:38:00,
2013-04-24 02:40:00,58.6,57.2,30.11,NE,45,0.0,0.0,95,0.00,CLR,SCT,0.00,WeatherDisplay:10.37,2013-04-24 06:40:00,
2013-04-24 02:41:00,58.6,57.2,30.11,NE,44,0.0,0.0,95,0.00,CLR,SCT,0.00,WeatherDisplay:10.37,2013-04-24 06:41:00,
2013-04-24 02:43:00,58.7,57.3,30.11,NE,44,0.0,0.0,95,0.00,CLR,SCT,0.00,WeatherDisplay:10.37,2013-04-24 06:43:00,
2013-04-24 02:46:00,58.6,57.2,30.11,NE,44,0.0,0.0,95,0.00,CLR,SCT,0.00,WeatherDisplay:10.37,2013-04-24 06:46:00,
2013-04-24 02:48:00,58.6,57.2,30.10,NE,44,0.0,0.0,95,0.00,CLR,SCT,0.00,WeatherDisplay:10.37,2013-04-24 06:48:00,
2013-04-24 02:51:00,58.6,57.2,30.11,NE,44,0.0,0.0,95,0.00,CLR,SCT,0.00,WeatherDisplay:10.37,2013-04-24 06:51:00,
2013-04-24 02:52:00,58.5,57.1,30.11,NE,44,0.0,0.0,95,0.00,CLR,SCT,0.00,WeatherDisplay:10.37,2013-04-24 06:52:00,
2013-04-24 02:53:00,58.6,57.2,30.11,NE,44,0.0,0.0,95,0.00,CLR,SCT,0.00,WeatherDisplay:10.37,2013-04-24 06:53:00,
2013-04-24 02:54:00,58.5,57.1,30.11,NE,44,0.0,0.0,95,0.00,CLR,SCT,0.00,WeatherDisplay:10.37,2013-04-24 06:54:00,
2013-04-24 02:56:00,58.5,57.1,30.11,NE,44,0.0,0.0,95,0.00,CLR,SCT,0.00,WeatherDisplay:10.37,2013-04-24 06:56:00,
2013-04-24 02:57:00,58.6,57.2,30.11,NE,44,0.0,0.0,95,0.00,CLR,SCT,0.00,WeatherDisplay:10.37,2013-04-24 06:57:00,
2013-04-24 02:59:00,58.6,57.5,30.11,NE,44,0.0,0.0,96,0.00,CLR,SCT,0.00,WeatherDisplay:10.37,2013-04-24 06:59:00,
2013-04-24 03:01:00,58.6,57.5,30.11,NE,44,0.0,0.0,96,0.00,CLR,SCT,0.00,WeatherDisplay:10.37,2013-04-24 07:01:00,
2013-04-24 03:02:00,58.6,57.5,30.11,NE,44,0.0,0.0,96,0.00,CLR,SCT,0.00,WeatherDisplay:10.37,2013-04-24 07:02:00,
2013-04-24 03:04:00,58.6,57.5,30.11,NE,44,0.0,0.0,96,0.00,CLR,SCT,0.00,WeatherDisplay:10.37,2013-04-24 07:04:00,
2013-04-24 03:07:00,58.6,57.5,30.11,NE,44,0.0,0.0,96,0.00,CLR,SCT,0.00,WeatherDisplay:10.37,2013-04-24 07:07:00,
2013-04-24 03:09:00,58.6,57.5,30.11,NE,44,0.0,0.0,96,0.00,CLR,SCT,0.00,WeatherDisplay:10.37,2013-04-24 07:09:00,
2013-04-24 03:12:00,58.6,57.5,30.11,NE,44,0.0,0.0,96,0.00,CLR,SCT,0.00,WeatherDisplay:10.37,2013-04-24 07:12:00,
2013-04-24 03:14:00,58.5,57.4,30.11,NE,44,0.0,0.0,96,0.00,CLR,SCT,0.00,WeatherDisplay:10.37,2013-04-24 07:14:00,
2013-04-24 03:56:00,58.0,56.9,30.10,NE,53,0.0,0.0,96,0.00,CLR,SCT,0.00,WeatherDisplay:10.37,2013-04-24 07:56:00,
2013-04-24 03:57:00,58.0,56.9,30.10,NE,53,0.0,0.0,96,0.00,CLR,SCT,0.00,WeatherDisplay:10.37,2013-04-24 07:57:00,
2013-04-24 04:01:00,58.0,56.9,30.10,NE,50,0.0,0.0,96,0.00,CLR,SCT,0.00,WeatherDisplay:10.37,2013-04-24 08:01:00,
2013-04-24 04:02:00,58.0,56.9,30.10,NE,49,0.0,0.0,96,0.00,CLR,SCT,0.00,WeatherDisplay:10.37,2013-04-24 08:02:00,
2013-04-24 04:06:00,58.1,57.0,30.10,NE,49,0.0,0.0,96,0.00,CLR,SCT,0.00,WeatherDisplay:10.37,2013-04-24 08:06:00,
2013-04-24 04:07:00,58.1,57.0,30.10,NE,49,0.0,0.0,96,0.00,CLR,SCT,0.00,WeatherDisplay:10.37,2013-04-24 08:07:00,
2013-04-24 04:11:00,58.1,57.0,30.10,WNW,300,0.0,0.0,96,0.00,CLR,SCT,0.00,WeatherDisplay:10.37,2013-04-24 08:11:00,
2013-04-24 04:12:00,58.1,57.0,30.10,WNW,300,0.0,0.0,96,0.00,CLR,SCT,0.00,WeatherDisplay:10.37,2013-04-24 08:12:00,
2013-04-24 04:13:00,58.0,56.9,30.10,WNW,300,0.0,0.0,96,0.00,CLR,SCT,0.00,WeatherDisplay:10.37,2013-04-24 08:13:00,
2013-04-24 04:16:00,58.1,57.3,30.10,NW,311,0.0,0.0,97,0.00,CLR,SCT,0.00,WeatherDisplay:10.37,2013-04-24 08:16:00,
2013-04-24 04:17:00,58.2,57.4,30.10,NW,310,0.0,0.0,97,0.00,CLR,SCT,0.00,WeatherDisplay:10.37,2013-04-24 08:17:00,
2013-04-24 04:18:00,58.2,57.4,30.10,NW,310,0.0,0.0,97,0.00,CLR,SCT,0.00,WeatherDisplay:10.37,2013-04-24 08:18:00,
2013-04-24 04:21:00,58.2,57.4,30.10,NW,311,0.0,0.0,97,0.00,CLR,SCT,0.00,WeatherDisplay:10.37,2013-04-24 08:21:00,
2013-04-24 04:22:00,58.2,57.4,30.10,NW,311,0.0,0.0,97,0.00,CLR,SCT,0.00,WeatherDisplay:10.37,2013-04-24 08:22:00,
2013-04-24 04:23:00,58.2,57.4,30.10,NW,311,0.0,0.0,97,0.00,CLR,SCT,0.00,WeatherDisplay:10.37,2013-04-24 08:23:00,
2013-04-24 04:24:00,58.2,57.4,30.10,NW,311,0.0,0.0,97,0.00,CLR,SCT,0.00,WeatherDisplay:10.37,2013-04-24 08:24:00,
2013-04-24 04:27:00,58.2,57.4,30.10,NW,311,0.0,0.0,97,0.00,CLR,SCT,0.00,WeatherDisplay:10.37,2013-04-24 08:27:00,
2013-04-24 04:28:00,58.3,57.5,30.10,NW,311,0.0,0.0,97,0.00,CLR,SCT,0.00,WeatherDisplay:10.37,2013-04-24 08:28:00,
2013-04-24 04:30:00,58.3,57.5,30.10,NW,311,0.0,0.0,97,0.00,CLR,SCT,0.00,WeatherDisplay:10.37,2013-04-24 08:30:00,
2013-04-24 04:32:00,58.3,57.5,30.10,NW,310,0.0,0.0,97,0.00,CLR,SCT,0.00,WeatherDisplay:10.37,2013-04-24 08:32:00,
2013-04-24 04:33:00,58.3,57.5,30.10,NW,311,0.0,0.0,97,0.00,CLR,SCT,0.00,WeatherDisplay:10.37,2013-04-24 08:33:00,
2013-04-24 04:35:00,58.3,57.5,30.10,NW,311,0.0,0.0,97,0.00,CLR,SCT,0.00,WeatherDisplay:10.37,2013-04-24 08:35:00,
2013-04-24 04:38:00,58.4,57.6,30.10,NW,311,0.0,0.0,97,0.00,CLR,SCT,0.00,WeatherDisplay:10.37,2013-04-24 08:38:00,
2013-04-24 04:39:00,58.5,57.7,30.10,NW,309,0.0,0.0,97,0.00,CLR,SCT,0.00,WeatherDisplay:10.37,2013-04-24 08:39:00,
2013-04-24 04:40:00,58.5,57.7,30.10,NW,309,0.0,0.0,97,0.00,CLR,SCT,0.00,WeatherDisplay:10.37,2013-04-24 08:40:00,
2013-04-24 04:43:00,58.5,57.7,30.10,NW,309,0.0,0.0,97,0.00,CLR,SCT,0.00,WeatherDisplay:10.37,2013-04-24 08:43:00,
2013-04-24 04:44:00,58.5,57.7,30.10,NW,311,0.0,0.0,97,0.00,CLR,SCT,0.00,WeatherDisplay:10.37,2013-04-24 08:44:00,
2013-04-24 04:45:00,58.6,57.8,30.10,NW,310,0.0,0.0,97,0.00,CLR,SCT,0.00,WeatherDisplay:10.37,2013-04-24 08:45:00,
2013-04-24 04:48:00,58.6,57.8,30.11,NW,310,0.0,0.0,97,0.00,CLR,SCT,0.00,WeatherDisplay:10.37,2013-04-24 08:48:00,
2013-04-24 04:49:00,58.7,57.9,30.11,NW,311,0.0,0.0,97,0.00,CLR,SCT,0.00,WeatherDisplay:10.37,2013-04-24 08:49:00,
2013-04-24 04:50:00,58.6,57.8,30.10,NW,311,0.0,0.0,97,0.00,CLR,SCT,0.00,WeatherDisplay:10.37,2013-04-24 08:50:00,
2013-04-24 04:53:00,58.4,57.6,30.11,NW,310,0.0,0.0,97,0.00,CLR,SCT,0.00,WeatherDisplay:10.37,2013-04-24 08:53:00,
2013-04-24 04:54:00,58.3,57.5,30.11,NW,310,0.0,0.0,97,0.00,CLR,SCT,0.00,WeatherDisplay:10.37,2013-04-24 08:54:00,
2013-04-24 04:56:00,58.2,57.1,30.11,NW,311,0.0,0.0,96,0.00,CLR,SCT,0.00,WeatherDisplay:10.37,2013-04-24 08:56:00,
2013-04-24 04:58:00,58.0,56.9,30.11,NW,311,0.0,0.0,96,0.00,CLR,SCT,0.00,WeatherDisplay:10.37,2013-04-24 08:58:00,
2013-04-24 04:59:00,58.0,56.9,30.11,NW,309,0.0,0.0,96,0.00,CLR,SCT,0.00,WeatherDisplay:10.37,2013-04-24 08:59:00,
2013-04-24 05:01:00,57.9,56.8,30.11,NW,311,0.0,0.0,96,0.00,CLR,SCT,0.00,WeatherDisplay:10.37,2013-04-24 09:01:00,
2013-04-24 05:03:00,57.8,56.7,30.10,NW,311,0.0,0.0,96,0.00,CLR,SCT,0.00,WeatherDisplay:10.37,2013-04-24 09:03:00,
2013-04-24 05:04:00,57.7,56.6,30.10,NW,310,0.0,0.0,96,0.00,CLR,SCT,0.00,WeatherDisplay:10.37,2013-04-24 09:04:00,
2013-04-24 05:06:00,57.6,56.5,30.11,NW,311,0.0,0.0,96,0.00,CLR,SCT,0.00,WeatherDisplay:10.37,2013-04-24 09:06:00,
2013-04-24 05:09:00,57.6,56.5,30.11,NW,310,0.0,0.0,96,0.00,CLR,SCT,0.00,WeatherDisplay:10.37,2013-04-24 09:09:00,
2013-04-24 05:11:00,57.5,56.7,30.11,NW,311,0.0,0.0,97,0.00,CLR,SCT,0.00,WeatherDisplay:10.37,2013-04-24 09:11:00,
2013-04-24 05:14:00,57.6,56.8,30.11,NW,311,0.0,0.0,97,0.00,CLR,SCT,0.00,WeatherDisplay:10.37,2013-04-24 09:14:00,
2013-04-24 05:15:00,57.6,56.8,30.11,NW,310,0.0,0.0,97,0.00,CLR,SCT,0.00,WeatherDisplay:10.37,2013-04-24 09:15:00,
2013-04-24 05:16:00,57.7,56.9,30.11,NW,311,0.0,0.0,97,0.00,CLR,SCT,0.00,WeatherDisplay:10.37,2013-04-24 09:16:00,
2013-04-24 05:19:00,57.7,56.9,30.11,NNW,345,0.0,0.0,97,0.00,CLR,SCT,0.00,WeatherDisplay:10.37,2013-04-24 09:19:00,
2013-04-24 05:20:00,57.7,56.9,30.11,NNW,346,0.0,0.0,97,0.00,CLR,SCT,0.00,WeatherDisplay:10.37,2013-04-24 09:20:00,
2013-04-24 05:21:00,57.8,57.0,30.11,NNW,346,0.0,0.0,97,0.00,CLR,SCT,0.00,WeatherDisplay:10.37,2013-04-24 09:21:00,
2013-04-24 05:24:00,57.8,57.0,30.11,NNW,346,0.0,0.0,97,0.00,CLR,SCT,0.00,WeatherDisplay:10.37,2013-04-24 09:24:00,
2013-04-24 05:25:00,57.8,57.0,30.11,NNW,346,0.0,0.0,97,0.00,CLR,SCT,0.00,WeatherDisplay:10.37,2013-04-24 09:25:00,
2013-04-24 05:27:00,57.7,56.9,30.11,NNW,345,0.0,0.0,97,0.00,CLR,SCT,0.00,WeatherDisplay:10.37,2013-04-24 09:27:00,
2013-04-24 05:29:00,57.7,56.9,30.11,NNW,346,0.0,0.0,97,0.00,CLR,SCT,0.00,WeatherDisplay:10.37,2013-04-24 09:29:00,
2013-04-24 05:30:00,57.7,56.9,30.11,NNW,345,0.0,0.0,97,0.00,CLR,SCT,0.00,WeatherDisplay:10.37,2013-04-24 09:30:00,
2013-04-24 05:32:00,57.7,56.9,30.11,NNW,346,0.0,0.0,97,0.00,CLR,SCT,0.00,WeatherDisplay:10.37,2013-04-24 09:32:00,
2013-04-24 05:35:00,57.7,56.9,30.11,NNW,346,0.0,0.0,97,0.00,CLR,SCT,0.00,WeatherDisplay:10.37,2013-04-24 09:35:00,
2013-04-24 05:37:00,57.7,56.9,30.11,NNW,346,0.0,0.0,97,0.00,CLR,SCT,0.00,WeatherDisplay:10.37,2013-04-24 09:37:00,
2013-04-24 05:40:00,57.6,56.8,30.11,NNW,346,0.0,0.0,97,0.00,CLR,SCT,0.00,WeatherDisplay:10.37,2013-04-24 09:40:00,
2013-04-24 05:42:00,57.7,56.9,30.11,NNW,345,0.0,0.0,97,0.00,CLR,SCT,0.00,WeatherDisplay:10.37,2013-04-24 09:42:00,
2013-04-24 05:45:00,57.7,56.9,30.11,NNW,345,0.0,0.0,97,0.00,CLR,SCT,0.00,WeatherDisplay:10.37,2013-04-24 09:45:00,
2013-04-24 05:46:00,57.7,56.9,30.11,NNW,345,0.0,0.0,97,0.00,CLR,SCT,0.00,WeatherDisplay:10.37,2013-04-24 09:46:00,
2013-04-24 05:48:00,57.7,56.9,30.11,NNW,345,0.0,0.0,97,0.00,CLR,SCT,0.00,WeatherDisplay:10.37,2013-04-24 09:48:00,
2013-04-24 05:50:00,57.8,57.0,30.12,NNW,346,0.0,0.0,97,0.00,CLR,SCT,0.00,WeatherDisplay:10.37,2013-04-24 09:50:00,
2013-04-24 05:51:00,57.8,57.0,30.12,NNW,345,0.0,0.0,97,0.00,CLR,SCT,0.00,WeatherDisplay:10.37,2013-04-24 09:51:00,
2013-04-24 05:53:00,57.7,56.9,30.11,NNW,346,0.0,0.0,97,0.00,CLR,SCT,0.00,WeatherDisplay:10.37,2013-04-24 09:53:00,
2013-04-24 05:55:00,57.6,56.8,30.11,NNW,345,0.0,0.0,97,0.00,CLR,SCT,0.00,WeatherDisplay:10.37,2013-04-24 09:55:00,
2013-04-24 05:56:00,57.6,56.8,30.11,NNW,346,0.0,0.0,97,0.00,CLR,SCT,0.00,WeatherDisplay:10.37,2013-04-24 09:56:00,
2013-04-24 05:58:00,57.6,56.8,30.11,NNW,345,0.0,0.0,97,0.00,CLR,SCT,0.00,WeatherDisplay:10.37,2013-04-24 09:58:00,
2013-04-24 06:01:00,57.6,56.8,30.12,NNW,345,0.0,0.0,97,0.00,CLR,SCT,0.00,WeatherDisplay:10.37,2013-04-24 10:01:00,
2013-04-24 06:03:00,57.5,56.7,30.12,NNW,345,0.0,0.0,97,0.00,CLR,SCT,0.00,WeatherDisplay:10.37,2013-04-24 10:03:00,
2013-04-24 06:06:00,57.6,56.8,30.12,NNW,345,0.0,0.0,97,0.00,CLR,SCT,0.00,WeatherDisplay:10.37,2013-04-24 10:06:00,
2013-04-24 06:08:00,57.6,56.8,30.12,NNW,346,0.0,0.0,97,0.00,CLR,SCT,0.00,WeatherDisplay:10.37,2013-04-24 10:08:00,
2013-04-24 06:11:00,57.5,56.7,30.12,NNW,345,0.0,0.0,97,0.00,CLR,SCT,0.00,WeatherDisplay:10.37,2013-04-24 10:11:00,
2013-04-24 06:12:00,57.5,56.7,30.12,NNW,345,0.0,0.0,97,0.00,CLR,SCT,0.00,WeatherDisplay:10.37,2013-04-24 10:12:00,
2013-04-24 06:13:00,57.5,56.7,30.12,NNW,346,0.0,0.0,97,0.00,CLR,SCT,0.00,WeatherDisplay:10.37,2013-04-24 10:13:00,
2013-04-24 06:16:00,57.5,56.7,30.12,NNW,346,0.0,0.0,97,0.00,CLR,SCT,0.00,WeatherDisplay:10.37,2013-04-24 10:16:00,
2013-04-24 06:17:00,57.5,56.7,30.12,NNW,345,0.0,0.0,97,0.00,CLR,SCT,0.00,WeatherDisplay:10.37,2013-04-24 10:17:00,
2013-04-24 06:18:00,57.5,56.7,30.12,NNW,345,0.0,0.0,97,0.00,CLR,SCT,0.00,WeatherDisplay:10.37,2013-04-24 10:18:00,
2013-04-24 06:21:00,57.5,56.7,30.12,NNW,346,0.0,0.0,97,0.00,CLR,SCT,0.00,WeatherDisplay:10.37,2013-04-24 10:21:00,
2013-04-24 06:22:00,57.5,56.7,30.12,NNW,345,0.0,0.0,97,0.00,CLR,SCT,0.00,WeatherDisplay:10.37,2013-04-24 10:22:00,
2013-04-24 06:23:00,57.5,56.7,30.12,NNW,346,0.0,0.0,97,0.00,CLR,SCT,0.00,WeatherDisplay:10.37,2013-04-24 10:23:00,
2013-04-24 06:26:00,57.5,56.7,30.12,NNW,346,0.0,0.0,97,0.00,CLR,SCT,0.00,WeatherDisplay:10.37,2013-04-24 10:26:00,
2013-04-24 06:27:00,57.5,56.7,30.12,NNW,346,0.0,0.0,97,0.00,CLR,SCT,0.00,WeatherDisplay:10.37,2013-04-24 10:27:00,
2013-04-24 06:29:00,57.5,56.7,30.12,NNW,346,0.0,0.0,97,0.00,CLR,SCT,0.00,WeatherDisplay:10.37,2013-04-24 10:29:00,
2013-04-24 06:31:00,57.4,56.6,30.12,NNW,346,0.0,0.0,97,0.00,CLR,SCT,0.00,WeatherDisplay:10.37,2013-04-24 10:31:00,
2013-04-24 06:32:00,57.4,56.6,30.12,NNW,346,0.0,0.0,97,0.00,CLR,SCT,0.00,WeatherDisplay:10.37,2013-04-24 10:32:00,
2013-04-24 06:34:00,57.5,56.7,30.12,NNW,345,0.0,0.0,97,0.00,CLR,SCT,0.00,WeatherDisplay:10.37,2013-04-24 10:34:00,
2013-04-24 06:36:00,57.5,56.7,30.12,NNW,346,0.0,0.0,97,0.00,CLR,SCT,0.00,WeatherDisplay:10.37,2013-04-24 10:36:00,
2013-04-24 06:37:00,57.5,56.7,30.12,NNW,345,0.0,0.0,97,0.00,CLR,SCT,0.00,WeatherDisplay:10.37,2013-04-24 10:37:00,
2013-04-24 06:38:00,57.5,56.7,30.12,NNW,346,0.0,0.0,97,0.00,CLR,SCT,0.00,WeatherDisplay:10.37,2013-04-24 10:38:00,
2013-04-24 06:40:00,57.5,56.7,30.12,NNW,346,0.0,0.0,97,0.00,CLR,SCT,0.00,WeatherDisplay:10.37,2013-04-24 10:40:00,
2013-04-24 06:41:00,57.6,56.8,30.12,NNW,346,0.0,0.0,97,0.00,CLR,SCT,0.00,WeatherDisplay:10.37,2013-04-24 10:41:00,
2013-04-24 06:42:00,57.6,57.0,30.12,NNW,346,0.0,0.0,98,0.00,CLR,SCT,0.00,WeatherDisplay:10.37,2013-04-24 10:42:00,
2013-04-24 06:43:00,57.6,57.0,30.12,NNW,346,0.0,0.0,98,0.00,CLR,SCT,0.00,WeatherDisplay:10.37,2013-04-24 10:43:00,
2013-04-24 06:45:00,57.6,56.8,30.12,NNW,345,0.0,0.0,97,0.00,CLR,SCT,0.00,WeatherDisplay:10.37,2013-04-24 10:45:00,
2013-04-24 06:46:00,57.6,56.8,30.12,NNW,345,0.0,0.0,97,0.00,CLR,SCT,0.00,WeatherDisplay:10.37,2013-04-24 10:46:00,
2013-04-24 06:47:00,57.5,56.7,30.12,NNW,345,0.0,0.0,97,0.00,CLR,SCT,0.00,WeatherDisplay:10.37,2013-04-24 10:47:00,
2013-04-24 06:48:00,57.5,56.7,30.12,NNW,346,0.0,0.0,97,0.00,CLR,SCT,0.00,WeatherDisplay:10.37,2013-04-24 10:48:00,
2013-04-24 06:50:00,57.5,56.7,30.13,NNW,345,0.0,0.0,97,0.00,CLR,SCT,0.00,WeatherDisplay:10.37,2013-04-24 10:50:00,
2013-04-24 06:51:00,57.5,56.7,30.13,NNW,346,0.0,0.0,97,0.00,CLR,SCT,0.00,WeatherDisplay:10.37,2013-04-24 10:51:00,
2013-04-24 06:53:00,57.5,56.7,30.13,NNW,345,0.0,0.0,97,0.00,CLR,SCT,0.00,WeatherDisplay:10.37,2013-04-24 10:53:00,
2013-04-24 06:55:00,57.5,56.7,30.12,NNW,346,0.0,0.0,97,0.00,CLR,SCT,0.00,WeatherDisplay:10.37,2013-04-24 10:55:00,
2013-04-24 06:57:00,57.5,56.7,30.13,NNW,345,0.0,0.0,97,0.00,CLR,SCT,0.00,WeatherDisplay:10.37,2013-04-24 10:57:00,
2013-04-24 06:58:00,57.5,56.7,30.13,NNW,345,0.0,0.0,97,0.00,CLR,SCT,0.00,WeatherDisplay:10.37,2013-04-24 10:58:00,
2013-04-24 07:00:00,57.4,56.6,30.13,NNW,346,0.0,0.0,97,0.00,CLR,SCT,0.00,WeatherDisplay:10.37,2013-04-24 11:00:00,
2013-04-24 07:02:00,57.4,56.6,30.13,NNW,346,0.0,0.0,97,0.00,CLR,SCT,0.00,WeatherDisplay:10.37,2013-04-24 11:02:00,
2013-04-24 07:03:00,57.4,56.6,30.13,NNW,346,0.0,0.0,97,0.00,CLR,SCT,0.00,WeatherDisplay:10.37,2013-04-24 11:03:00,
2013-04-24 07:05:00,57.3,56.5,30.13,NNW,345,0.0,0.0,97,0.00,CLR,SCT,0.00,WeatherDisplay:10.37,2013-04-24 11:05:00,
2013-04-24 07:07:00,57.3,56.5,30.13,NNW,345,0.0,0.0,97,0.00,CLR,SCT,0.00,WeatherDisplay:10.37,2013-04-24 11:07:00,
2013-04-24 07:08:00,57.3,56.5,30.13,NNW,345,0.0,0.0,97,0.00,CLR,SCT,0.00,WeatherDisplay:10.37,2013-04-24 11:08:00,
2013-04-24 07:09:00,57.2,56.4,30.13,NNW,345,0.0,0.0,97,0.00,CLR,SCT,0.00,WeatherDisplay:10.37,2013-04-24 11:09:00,
2013-04-24 07:10:00,57.2,56.4,30.13,NNW,346,0.0,0.0,97,0.00,CLR,SCT,0.00,WeatherDisplay:10.37,2013-04-24 11:10:00,
2013-04-24 07:12:00,57.2,56.4,30.13,NNW,346,0.0,0.0,97,0.00,CLR,SCT,0.00,WeatherDisplay:10.37,2013-04-24 11:12:00,
2013-04-24 07:13:00,57.3,56.5,30.13,NNW,346,0.0,0.0,97,0.00,CLR,SCT,0.00,WeatherDisplay:10.37,2013-04-24 11:13:00,
2013-04-24 07:14:00,57.3,56.5,30.13,NNW,346,0.0,0.0,97,0.00,CLR,SCT,0.00,WeatherDisplay:10.37,2013-04-24 11:14:00,
2013-04-24 07:16:00,57.4,56.8,30.13,NNW,346,0.0,0.0,98,0.00,CLR,SCT,0.00,WeatherDisplay:10.37,2013-04-24 11:16:00,
2013-04-24 07:18:00,57.6,57.0,30.13,NNW,345,0.0,0.0,98,0.00,CLR,SCT,0.00,WeatherDisplay:10.37,2013-04-24 11:18:00,
2013-04-24 07:19:00,57.8,57.2,30.13,NNW,346,0.0,0.0,98,0.00,CLR,SCT,0.00,WeatherDisplay:10.37,2013-04-24 11:19:00,
2013-04-24 07:21:00,57.9,57.3,30.13,NNW,346,0.0,0.0,98,0.00,CLR,SCT,0.00,WeatherDisplay:10.37,2013-04-24 11:21:00,
2013-04-24 07:23:00,58.1,57.5,30.13,NNW,345,0.0,0.0,98,0.00,CLR,SCT,0.00,WeatherDisplay:10.37,2013-04-24 11:23:00,
2013-04-24 07:24:00,58.2,57.6,30.13,NNW,346,0.0,0.0,98,0.00,CLR,SCT,0.00,WeatherDisplay:10.37,2013-04-24 11:24:00,
2013-04-24 07:26:00,58.3,57.7,30.14,NNW,346,0.0,0.0,98,0.00,CLR,SCT,0.00,WeatherDisplay:10.37,2013-04-24 11:26:00,
2013-04-24 07:28:00,58.6,58.0,30.14,NNW,346,0.0,0.0,98,0.00,CLR,SCT,0.00,WeatherDisplay:10.37,2013-04-24 11:28:00,
2013-04-24 07:29:00,58.7,58.1,30.14,NNW,346,0.0,0.0,98,0.00,CLR,SCT,0.00,WeatherDisplay:10.37,2013-04-24 11:29:00,
2013-04-24 07:30:00,58.8,58.2,30.14,NNW,346,0.0,0.0,98,0.00,CLR,SCT,0.00,WeatherDisplay:10.37,2013-04-24 11:30:00,
2013-04-24 07:31:00,58.9,58.3,30.14,NNW,346,0.0,0.0,98,0.00,CLR,SCT,0.00,WeatherDisplay:10.37,2013-04-24 11:31:00,
2013-04-24 07:34:00,59.2,58.6,30.14,NNW,346,0.0,0.0,98,0.00,CLR,SCT,0.00,WeatherDisplay:10.37,2013-04-24 11:34:00,
2013-04-24 07:36:00,59.5,59.2,30.14,NNW,345,0.0,0.0,99,0.00,CLR,SCT,0.00,WeatherDisplay:10.37,2013-04-24 11:36:00,
2013-04-24 07:39:00,59.9,59.6,30.14,NNW,346,0.0,0.0,99,0.00,CLR,SCT,0.00,WeatherDisplay:10.37,2013-04-24 11:39:00,
2013-04-24 07:40:00,60.0,59.7,30.14,NNW,346,0.0,0.0,99,0.00,CLR,SCT,0.00,WeatherDisplay:10.37,2013-04-24 11:40:00,
2013-04-24 07:41:00,60.1,59.8,30.14,NNW,345,0.0,0.0,99,0.00,CLR,SCT,0.00,WeatherDisplay:10.37,2013-04-24 11:41:00,
2013-04-24 07:44:00,60.4,60.1,30.14,NNW,346,0.0,0.0,99,0.00,CLR,SCT,0.00,WeatherDisplay:10.37,2013-04-24 11:44:00,
2013-04-24 07:45:00,60.5,60.2,30.14,NNW,345,0.0,0.0,99,0.00,CLR,SCT,0.00,WeatherDisplay:10.37,2013-04-24 11:45:00,
2013-04-24 07:46:00,60.6,60.3,30.14,NNW,345,0.0,0.0,99,0.00,CLR,SCT,0.00,WeatherDisplay:10.37,2013-04-24 11:46:00,
2013-04-24 07:49:00,60.9,60.6,30.14,NNW,345,0.0,0.0,99,0.00,CLR,SCT,0.00,WeatherDisplay:10.37,2013-04-24 11:49:00,
2013-04-24 07:50:00,60.9,60.6,30.14,NNW,345,0.0,0.0,99,0.00,CLR,SCT,0.00,WeatherDisplay:10.37,2013-04-24 11:50:00,
2013-04-24 07:51:00,61.0,60.7,30.14,NNW,345,0.0,0.0,99,0.00,CLR,SCT,0.00,WeatherDisplay:10.37,2013-04-24 11:51:00,
2013-04-24 07:52:00,61.1,60.8,30.14,NNW,346,0.0,0.0,99,0.00,CLR,SCT,0.00,WeatherDisplay:10.37,2013-04-24 11:52:00,
2013-04-24 07:54:00,61.3,61.0,30.14,NNW,346,0.0,0.0,99,0.00,CLR,SCT,0.00,WeatherDisplay:10.37,2013-04-24 11:54:00,
2013-04-24 07:55:00,61.3,61.0,30.14,NNW,345,0.0,0.0,99,0.00,CLR,SCT,0.00,WeatherDisplay:10.37,2013-04-24 11:55:00,
2013-04-24 07:56:00,61.4,61.1,30.14,NNW,346,0.0,0.0,99,0.00,CLR,SCT,0.00,WeatherDisplay:10.37,2013-04-24 11:56:00,
2013-04-24 07:57:00,61.5,61.2,30.14,NNW,346,0.0,0.0,99,0.00,CLR,SCT,0.00,WeatherDisplay:10.37,2013-04-24 11:57:00,
2013-04-24 08:00:00,61.7,61.4,30.14,NNW,345,0.0,0.0,99,0.00,CLR,SCT,0.00,WeatherDisplay:10.37,2013-04-24 12:00:00,
2013-04-24 08:01:00,61.9,61.6,30.15,NNW,345,0.0,0.0,99,0.00,CLR,SCT,0.00,WeatherDisplay:10.37,2013-04-24 12:01:00,
2013-04-24 08:02:00,62.0,61.7,30.15,NNW,346,0.0,0.0,99,0.00,CLR,SCT,0.00,WeatherDisplay:10.37,2013-04-24 12:02:00,
2013-04-24 08:05:00,62.4,61.8,30.15,NNW,346,0.0,0.0,98,0.00,CLR,SCT,0.00,WeatherDisplay:10.37,2013-04-24 12:05:00,
2013-04-24 08:06:00,62.7,62.1,30.15,NNW,346,0.0,0.0,98,0.00,CLR,SCT,0.00,WeatherDisplay:10.37,2013-04-24 12:06:00,
2013-04-24 08:08:00,62.8,62.2,30.15,NNW,346,0.0,0.0,98,0.00,CLR,SCT,0.00,WeatherDisplay:10.37,2013-04-24 12:08:00,
2013-04-24 08:10:00,63.3,62.7,30.15,North,356,1.1,1.1,98,0.00,CLR,SCT,0.00,WeatherDisplay:10.37,2013-04-24 12:10:00,
2013-04-24 08:11:00,63.4,62.8,30.15,North,356,0.0,0.0,98,0.00,CLR,SCT,0.00,WeatherDisplay:10.37,2013-04-24 12:11:00,
2013-04-24 08:12:00,63.6,63.0,30.15,North,356,0.0,0.0,98,0.00,CLR,SCT,0.00,WeatherDisplay:10.37,2013-04-24 12:12:00,
2013-04-24 08:13:00,63.8,63.2,30.15,North,356,0.0,0.0,98,0.00,CLR,SCT,0.00,WeatherDisplay:10.37,2013-04-24 12:13:00,
2013-04-24 08:15:00,64.2,63.6,30.15,North,356,0.0,0.0,98,0.00,CLR,SCT,0.00,WeatherDisplay:10.37,2013-04-24 12:15:00,
2013-04-24 08:16:00,64.3,63.7,30.15,North,356,0.0,0.0,98,0.00,CLR,SCT,0.00,WeatherDisplay:10.37,2013-04-24 12:16:00,
2013-04-24 08:17:00,64.5,63.9,30.15,North,355,0.0,0.0,98,0.00,CLR,SCT,0.00,WeatherDisplay:10.37,2013-04-24 12:17:00,
2013-04-24 08:18:00,64.7,64.1,30.15,North,356,1.1,1.1,98,0.00,CLR,SCT,0.00,WeatherDisplay:10.37,2013-04-24 12:18:00,
2013-04-24 08:20:00,65.0,64.4,30.15,North,4,1.1,0.0,98,0.00,CLR,SCT,0.00,WeatherDisplay:10.37,2013-04-24 12:20:00,
2013-04-24 08:21:00,65.1,64.5,30.15,North,4,0.0,0.0,98,0.00,CLR,SCT,0.00,WeatherDisplay:10.37,2013-04-24 12:21:00,
2013-04-24 08:22:00,65.2,64.6,30.15,North,4,0.0,0.0,98,0.00,CLR,SCT,0.00,WeatherDisplay:10.37,2013-04-24 12:22:00,
2013-04-24 08:23:00,65.4,64.8,30.15,North,4,0.0,0.0,98,0.00,CLR,SCT,0.00,WeatherDisplay:10.37,2013-04-24 12:23:00,
2013-04-24 08:25:00,65.8,64.9,30.15,ENE,63,0.0,0.0,97,0.00,CLR,SCT,0.00,WeatherDisplay:10.37,2013-04-24 12:25:00,
2013-04-24 08:26:00,65.8,64.9,30.15,ENE,63,0.0,0.0,97,0.00,CLR,SCT,0.00,WeatherDisplay:10.37,2013-04-24 12:26:00,
2013-04-24 08:28:00,66.0,65.1,30.15,ENE,63,0.0,0.0,97,0.00,CLR,SCT,0.00,WeatherDisplay:10.37,2013-04-24 12:28:00,
2013-04-24 08:31:00,66.6,65.4,30.15,ENE,63,0.0,0.0,96,0.00,CLR,SCT,0.00,WeatherDisplay:10.37,2013-04-24 12:31:00,
2013-04-24 08:33:00,66.9,65.4,30.16,ENE,64,0.0,0.0,95,0.00,CLR,SCT,0.00,WeatherDisplay:10.37,2013-04-24 12:33:00,
2013-04-24 08:36:00,67.6,66.1,30.16,ENE,63,0.0,0.0,95,0.00,CLR,SCT,0.00,WeatherDisplay:10.37,2013-04-24 12:36:00,
2013-04-24 08:38:00,67.9,65.8,30.15,ENE,67,0.0,0.0,93,0.00,CLR,SCT,0.00,WeatherDisplay:10.37,2013-04-24 12:38:00,
2013-04-24 08:41:00,68.4,66.0,30.16,ENE,67,0.0,0.0,92,0.00,CLR,SCT,0.00,WeatherDisplay:10.37,2013-04-24 12:41:00,
2013-04-24 08:43:00,68.6,65.9,30.16,SW,215,1.1,1.1,91,0.00,CLR,SCT,0.00,WeatherDisplay:10.37,2013-04-24 12:43:00,
2013-04-24 08:46:00,69.2,65.8,30.16,SW,215,0.0,0.0,89,0.00,CLR,SCT,0.00,WeatherDisplay:10.37,2013-04-24 12:46:00,
2013-04-24 08:47:00,69.4,66.0,30.15,ENE,68,1.1,1.1,89,0.00,CLR,SCT,0.00,WeatherDisplay:10.37,2013-04-24 12:47:00,
2013-04-24 08:49:00,69.6,65.9,30.15,ENE,68,0.0,0.0,88,0.00,CLR,SCT,0.00,WeatherDisplay:10.37,2013-04-24 12:49:00,
2013-04-24 08:52:00,70.2,65.8,30.15,ENE,58,0.0,0.0,86,0.00,CLR,SCT,0.00,WeatherDisplay:10.37,2013-04-24 12:52:00,
2013-04-24 08:53:00,70.4,65.7,30.16,ENE,58,0.0,0.0,85,0.00,CLR,SCT,0.00,WeatherDisplay:10.37,2013-04-24 12:53:00,
2013-04-24 08:54:00,70.7,66.0,30.15,SW,219,1.1,1.1,85,0.00,CLR,SCT,0.00,WeatherDisplay:10.37,2013-04-24 12:54:00,
2013-04-24 08:57:00,71.3,66.2,30.15,SE,126,0.0,0.0,84,0.00,CLR,SCT,0.00,WeatherDisplay:10.37,2013-04-24 12:57:00,
2013-04-24 08:58:00,71.4,66.3,30.15,SSW,196,1.1,0.0,84,0.00,CLR,SCT,0.00,WeatherDisplay:10.37,2013-04-24 12:58:00,
2013-04-24 08:59:00,71.7,66.3,30.16,ESE,120,1.1,0.0,83,0.00,CLR,SCT,0.00,WeatherDisplay:10.37,2013-04-24 12:59:00,
2013-04-24 09:02:00,71.8,65.7,30.16,ENE,72,1.1,0.0,81,0.00,CLR,SCT,0.00,WeatherDisplay:10.37,2013-04-24 13:02:00,
2013-04-24 09:03:00,71.9,65.8,30.16,SSW,204,1.1,0.0,81,0.00,CLR,SCT,0.00,WeatherDisplay:10.37,2013-04-24 13:03:00,
2013-04-24 09:04:00,71.9,65.4,30.16,ESE,105,1.1,1.1,80,0.00,CLR,SCT,0.00,WeatherDisplay:10.37,2013-04-24 13:04:00,
2013-04-24 09:05:00,71.9,65.4,30.16,ENE,68,3.5,3.5,80,0.00,CLR,SCT,0.00,WeatherDisplay:10.37,2013-04-24 13:05:00,
2013-04-24 09:07:00,71.8,65.3,30.16,SSE,148,1.1,0.0,80,0.00,CLR,SCT,0.00,WeatherDisplay:10.37,2013-04-24 13:07:00,
2013-04-24 09:08:00,71.9,65.4,30.16,SSW,194,1.1,1.1,80,0.00,CLR,SCT,0.00,WeatherDisplay:10.37,2013-04-24 13:08:00,
2013-04-24 09:10:00,72.0,65.1,30.16,SSE,156,2.3,2.3,79,0.00,CLR,SCT,0.00,WeatherDisplay:10.37,2013-04-24 13:10:00,
2013-04-24 09:12:00,72.3,65.8,30.16,SW,225,0.0,0.1,80,0.00,CLR,SCT,0.00,WeatherDisplay:10.37,2013-04-24 13:12:00,
2013-04-24 09:13:00,72.4,65.9,30.16,SSW,205,1.1,1.1,80,0.00,CLR,SCT,0.00,WeatherDisplay:10.37,2013-04-24 13:13:00,
2013-04-24 09:14:00,72.5,65.6,30.16,SW,228,0.0,0.0,79,0.00,CLR,SCT,0.00,WeatherDisplay:10.37,2013-04-24 13:14:00,
2013-04-24 09:15:00,72.8,65.2,30.16,NE,42,3.5,3.5,77,0.00,CLR,SCT,0.00,WeatherDisplay:10.37,2013-04-24 13:15:00,
2013-04-24 09:16:00,72.8,65.2,30.16,NE,43,3.5,3.5,77,0.00,CLR,SCT,0.00,WeatherDisplay:10.37,2013-04-24 13:16:00,
2013-04-24 09:18:00,72.9,65.3,30.16,SW,228,3.5,3.5,77,0.00,CLR,SCT,0.00,WeatherDisplay:10.37,2013-04-24 13:18:00,
2013-04-24 09:19:00,73.0,65.4,30.16,SSW,212,1.1,1.1,77,0.00,CLR,SCT,0.00,WeatherDisplay:10.37,2013-04-24 13:19:00,
2013-04-24 09:21:00,73.1,65.5,30.16,SE,138,0.0,0.0,77,0.00,CLR,SCT,0.00,WeatherDisplay:10.37,2013-04-24 13:21:00,
2013-04-24 09:23:00,73.4,65.7,30.16,SE,138,0.0,0.0,77,0.00,CLR,SCT,0.00,WeatherDisplay:10.37,2013-04-24 13:23:00,
2013-04-24 09:24:00,73.7,66.0,30.16,SSW,206,0.0,0.0,77,0.00,CLR,SCT,0.00,WeatherDisplay:10.37,2013-04-24 13:24:00,
2013-04-24 09:26:00,74.1,66.0,30.16,SSE,154,0.0,0.0,76,0.00,CLR,SCT,0.00,WeatherDisplay:10.37,2013-04-24 13:26:00,
2013-04-24 09:28:00,74.5,66.1,30.16,SSE,153,0.0,0.0,75,0.00,CLR,SCT,0.00,WeatherDisplay:10.37,2013-04-24 13:28:00,
2013-04-24 09:29:00,74.9,66.1,30.16,SE,142,0.0,0.0,74,0.00,CLR,SCT,0.00,WeatherDisplay:10.37,2013-04-24 13:29:00,
2013-04-24 09:31:00,75.1,65.5,30.16,ENE,60,2.3,2.3,72,0.00,CLR,SCT,0.00,WeatherDisplay:10.37,2013-04-24 13:31:00,
2013-04-24 09:33:00,75.3,65.6,30.16,ENE,58,2.3,2.3,72,0.00,CLR,SCT,0.00,WeatherDisplay:10.37,2013-04-24 13:33:00,
2013-04-24 09:34:00,75.3,65.2,30.16,ENE,63,1.1,0.0,71,0.00,CLR,SCT,0.00,WeatherDisplay:10.37,2013-04-24 13:34:00,
2013-04-24 09:35:00,75.3,64.8,30.16,East,84,3.5,3.5,70,0.00,CLR,SCT,0.00,WeatherDisplay:10.37,2013-04-24 13:35:00,
2013-04-24 09:36:00,75.4,64.9,30.16,East,94,3.5,3.5,70,0.00,CLR,SCT,0.00,WeatherDisplay:10.37,2013-04-24 13:36:00,
2013-04-24 09:38:00,75.3,64.8,30.16,SSW,201,2.3,2.3,70,0.00,CLR,SCT,0.00,WeatherDisplay:10.37,2013-04-24 13:38:00,
2013-04-24 09:39:00,75.3,64.8,30.16,East,96,3.5,3.5,70,0.00,CLR,SCT,0.00,WeatherDisplay:10.37,2013-04-24 13:39:00,
2013-04-24 09:40:00,75.3,64.8,30.16,NE,53,2.3,2.3,70,0.00,CLR,SCT,0.00,WeatherDisplay:10.37,2013-04-24 13:40:00,
2013-04-24 09:41:00,75.3,64.4,30.16,East,88,3.5,3.5,69,0.00,CLR,SCT,0.00,WeatherDisplay:10.37,2013-04-24 13:41:00,
2013-04-24 09:42:00,75.3,64.8,30.16,South,186,1.1,1.1,70,0.00,CLR,SCT,0.00,WeatherDisplay:10.37,2013-04-24 13:42:00,
2013-04-24 09:43:00,75.3,64.8,30.16,South,172,1.1,1.1,70,0.00,CLR,SCT,0.00,WeatherDisplay:10.37,2013-04-24 13:43:00,
2013-04-24 09:44:00,75.3,64.8,30.16,SSW,204,2.3,2.3,70,0.00,CLR,SCT,0.00,WeatherDisplay:10.37,2013-04-24 13:44:00,
2013-04-24 09:45:00,75.5,65.0,30.16,SE,131,3.0,3.0,70,0.00,CLR,SCT,0.00,WeatherDisplay:10.37,2013-04-24 13:45:00,
2013-04-24 09:46:00,75.6,64.7,30.16,NE,55,5.0,5.0,69,0.00,CLR,SCT,0.00,WeatherDisplay:10.37,2013-04-24 13:46:00,
2013-04-24 09:47:00,75.7,64.8,30.16,NE,46,4.6,4.6,69,0.00,CLR,SCT,0.00,WeatherDisplay:10.37,2013-04-24 13:47:00,
2013-04-24 09:48:00,75.7,64.8,30.16,SW,218,3.5,3.5,69,0.00,CLR,SCT,0.00,WeatherDisplay:10.37,2013-04-24 13:48:00,
2013-04-24 09:49:00,75.8,64.9,30.16,ESE,122,2.3,2.3,69,0.00,CLR,SCT,0.00,WeatherDisplay:10.37,2013-04-24 13:49:00,
2013-04-24 09:50:00,75.9,65.0,30.16,South,173,2.3,2.3,69,0.00,CLR,SCT,0.00,WeatherDisplay:10.37,2013-04-24 13:50:00,
2013-04-24 09:51:00,76.0,64.7,30.16,SSW,212,3.5,3.5,68,0.00,CLR,SCT,0.00,WeatherDisplay:10.37,2013-04-24 13:51:00,
2013-04-24 09:52:00,76.1,64.8,30.16,SE,134,3.5,3.5,68,0.00,CLR,SCT,0.00,WeatherDisplay:10.37,2013-04-24 13:52:00,
2013-04-24 09:53:00,76.1,64.8,30.16,SSW,198,3.5,3.5,68,0.00,CLR,SCT,0.00,WeatherDisplay:10.37,2013-04-24 13:53:00,
2013-04-24 09:55:00,76.2,64.0,30.16,NE,40,2.3,2.3,66,0.00,CLR,SCT,0.00,WeatherDisplay:10.37,2013-04-24 13:55:00,
2013-04-24 09:56:00,76.2,64.0,30.16,NE,37,2.3,2.3,66,0.00,CLR,SCT,0.00,WeatherDisplay:10.37,2013-04-24 13:56:00,
2013-04-24 09:58:00,76.3,65.0,30.16,SSW,204,2.3,2.3,68,0.00,CLR,SCT,0.00,WeatherDisplay:10.37,2013-04-24 13:58:00,
2013-04-24 10:00:00,76.3,64.1,30.16,East,100,3.5,3.5,66,0.00,CLR,SCT,0.00,WeatherDisplay:10.37,2013-04-24 14:00:00,
2013-04-24 10:01:00,76.5,64.7,30.16,ENE,68,1.1,1.1,67,0.00,CLR,SCT,0.00,WeatherDisplay:10.37,2013-04-24 14:01:00,
2013-04-24 10:02:00,76.5,64.3,30.16,NNE,30,5.8,5.8,66,0.00,CLR,SCT,0.00,WeatherDisplay:10.37,2013-04-24 14:02:00,
2013-04-24 10:03:00,76.6,64.4,30.16,ESE,120,3.5,3.5,66,0.00,CLR,SCT,0.00,WeatherDisplay:10.37,2013-04-24 14:03:00,
2013-04-24 10:04:00,76.7,64.5,30.16,South,183,2.3,2.3,66,0.00,CLR,SCT,0.00,WeatherDisplay:10.37,2013-04-24 14:04:00,
2013-04-24 10:05:00,76.7,64.5,30.16,SSW,210,2.3,2.3,66,0.00,CLR,SCT,0.00,WeatherDisplay:10.37,2013-04-24 14:05:00,
2013-04-24 10:06:00,76.8,64.6,30.16,ENE,75,3.5,3.5,66,0.00,CLR,SCT,0.00,WeatherDisplay:10.37,2013-04-24 14:06:00,
2013-04-24 10:07:00,76.9,64.7,30.16,ENE,70,4.6,4.6,66,0.00,CLR,SCT,0.00,WeatherDisplay:10.37,2013-04-24 14:07:00,
2013-04-24 10:08:00,77.0,65.2,30.16,SW,235,1.1,1.1,67,0.00,CLR,SCT,0.00,WeatherDisplay:10.37,2013-04-24 14:08:00,
2013-04-24 10:09:00,77.1,64.9,30.16,NE,54,2.3,2.3,66,0.00,CLR,SCT,0.00,WeatherDisplay:10.37,2013-04-24 14:09:00,
2013-04-24 10:10:00,77.1,64.9,30.16,ESE,119,0.0,5.0,66,0.00,CLR,SCT,0.00,WeatherDisplay:10.37,2013-04-24 14:10:00,
2013-04-24 10:11:00,77.3,64.6,30.16,South,172,4.6,4.6,65,0.00,CLR,SCT,0.00,WeatherDisplay:10.37,2013-04-24 14:11:00,
2013-04-24 10:12:00,77.3,64.2,30.16,SE,143,3.5,3.5,64,0.00,CLR,SCT,0.00,WeatherDisplay:10.37,2013-04-24 14:12:00,
2013-04-24 10:14:00,77.3,64.6,30.16,SSW,212,2.3,2.3,65,0.00,CLR,SCT,0.00,WeatherDisplay:10.37,2013-04-24 14:14:00,
2013-04-24 10:15:00,77.3,64.2,30.16,SSE,167,3.5,3.5,64,0.00,CLR,SCT,0.00,WeatherDisplay:10.37,2013-04-24 14:15:00,
2013-04-24 10:16:00,77.4,64.3,30.16,South,177,3.5,3.5,64,0.00,CLR,SCT,0.00,WeatherDisplay:10.37,2013-04-24 14:16:00,
2013-04-24 10:17:00,77.4,64.3,30.16,NE,53,2.3,2.3,64,0.00,CLR,SCT,0.00,WeatherDisplay:10.37,2013-04-24 14:17:00,
2013-04-24 10:19:00,77.4,64.3,30.16,SSW,212,3.5,3.5,64,0.00,CLR,SCT,0.00,WeatherDisplay:10.37,2013-04-24 14:19:00,
2013-04-24 10:20:00,77.4,64.2,30.16,SE,135,1.0,6.0,64,0.00,CLR,SCT,0.00,WeatherDisplay:10.37,2013-04-24 14:20:00,
2013-04-24 10:21:00,77.4,64.3,30.16,SSW,210,4.6,4.6,64,0.00,CLR,SCT,0.00,WeatherDisplay:10.37,2013-04-24 14:21:00,
2013-04-24 10:22:00,77.4,64.3,30.16,ENE,61,3.5,3.5,64,0.00,CLR,SCT,0.00,WeatherDisplay:10.37,2013-04-24 14:22:00,
2013-04-24 10:24:00,77.6,64.5,30.16,NE,39,3.5,3.5,64,0.00,CLR,SCT,0.00,WeatherDisplay:10.37,2013-04-24 14:24:00,
2013-04-24 10:25:00,77.5,64.4,30.16,ESE,116,2.0,5.0,64,0.00,CLR,SCT,0.00,WeatherDisplay:10.37,2013-04-24 14:25:00,
2013-04-24 10:27:00,77.7,64.1,30.16,ENE,60,4.6,4.6,63,0.00,CLR,SCT,0.00,WeatherDisplay:10.37,2013-04-24 14:27:00,
2013-04-24 10:29:00,77.7,64.1,30.16,SE,132,2.3,2.3,63,0.00,CLR,SCT,0.00,WeatherDisplay:10.37,2013-04-24 14:29:00,
2013-04-24 10:30:00,77.7,64.1,30.16,SE,127,0.0,5.0,63,0.00,CLR,SCT,0.00,WeatherDisplay:10.37,2013-04-24 14:30:00,
2013-04-24 10:31:00,77.9,63.8,30.16,SSE,148,4.6,4.6,62,0.00,CLR,SCT,0.00,WeatherDisplay:10.37,2013-04-24 14:31:00,
2013-04-24 10:32:00,78.0,63.9,30.16,SE,133,3.5,3.5,62,0.00,CLR,SCT,0.00,WeatherDisplay:10.37,2013-04-24 14:32:00,
2013-04-24 10:34:00,78.1,63.6,30.16,NE,41,9.2,9.2,61,0.00,CLR,SCT,0.00,WeatherDisplay:10.37,2013-04-24 14:34:00,
2013-04-24 10:35:00,78.1,63.6,30.16,East,83,2.0,9.0,61,0.00,CLR,SCT,0.00,WeatherDisplay:10.37,2013-04-24 14:35:00,
2013-04-24 10:36:00,78.0,63.9,30.16,NE,44,3.5,3.5,62,0.00,CLR,SCT,0.00,WeatherDisplay:10.37,2013-04-24 14:36:00,
2013-04-24 10:37:00,77.9,63.8,30.16,ENE,61,3.5,3.5,62,0.00,CLR,SCT,0.00,WeatherDisplay:10.37,2013-04-24 14:37:00,
2013-04-24 10:39:00,78.0,64.4,30.16,SSW,210,3.5,3.5,63,0.00,CLR,SCT,0.00,WeatherDisplay:10.37,2013-04-24 14:39:00,
2013-04-24 10:40:00,78.1,64.5,30.16,WSW,242,4.0,4.0,63,0.00,CLR,SCT,0.00,WeatherDisplay:10.37,2013-04-24 14:40:00,
2013-04-24 10:41:00,78.2,64.1,30.16,ESE,112,3.5,3.5,62,0.00,CLR,SCT,0.00,WeatherDisplay:10.37,2013-04-24 14:41:00,
2013-04-24 10:42:00,78.3,63.7,30.16,ENE,61,3.5,3.5,61,0.00,CLR,SCT,0.00,WeatherDisplay:10.37,2013-04-24 14:42:00,
2013-04-24 10:45:00,78.5,64.4,30.16,East,98,0.0,4.0,62,0.00,CLR,SCT,0.00,WeatherDisplay:10.37,2013-04-24 14:45:00,
2013-04-24 10:47:00,78.8,64.2,30.16,SW,215,1.1,1.1,61,0.00,CLR,SCT,0.00,WeatherDisplay:10.37,2013-04-24 14:47:00,
2013-04-24 10:48:00,78.8,63.7,30.16,SE,131,6.9,6.9,60,0.00,CLR,SCT,0.00,WeatherDisplay:10.37,2013-04-24 14:48:00,
2013-04-24 10:50:00,79.0,64.4,30.16,ENE,67,3.5,3.5,61,0.00,CLR,SCT,0.00,WeatherDisplay:10.37,2013-04-24 14:50:00,
2013-04-24 10:52:00,79.2,65.1,30.16,NE,44,4.6,4.6,62,0.00,CLR,SCT,0.00,WeatherDisplay:10.37,2013-04-24 14:52:00,
2013-04-24 10:53:00,79.2,64.1,30.16,NE,53,3.5,3.5,60,0.00,CLR,SCT,0.00,WeatherDisplay:10.37,2013-04-24 14:53:00,
2013-04-24 10:55:00,79.2,64.1,30.16,ENE,74,5.8,5.8,60,0.00,CLR,SCT,0.00,WeatherDisplay:10.37,2013-04-24 14:55:00,
2013-04-24 10:57:00,78.9,63.8,30.16,SSW,210,3.5,3.5,60,0.00,CLR,SCT,0.00,WeatherDisplay:10.37,2013-04-24 14:57:00,
2013-04-24 10:58:00,78.8,63.3,30.16,SSW,198,5.8,5.8,59,0.00,CLR,SCT,0.00,WeatherDisplay:10.37,2013-04-24 14:58:00,
2013-04-24 11:00:00,78.8,63.3,30.16,SW,215,3.5,3.5,59,0.00,CLR,SCT,0.00,WeatherDisplay:10.37,2013-04-24 15:00:00,
2013-04-24 11:01:00,78.8,63.3,30.16,SW,225,3.5,3.5,59,0.00,CLR,SCT,0.00,WeatherDisplay:10.37,2013-04-24 15:01:00,
2013-04-24 11:02:00,79.1,64.0,30.16,SSE,156,3.5,3.5,60,0.00,CLR,SCT,0.00,WeatherDisplay:10.37,2013-04-24 15:02:00,
2013-04-24 11:03:00,79.1,64.0,30.16,SSW,195,2.3,2.3,60,0.00,CLR,SCT,0.00,WeatherDisplay:10.37,2013-04-24 15:03:00,
2013-04-24 11:09:00,80.0,64.4,30.16,South,169,3.5,3.5,59,0.00,CLR,SCT,0.00,WeatherDisplay:10.37,2013-04-24 15:09:00,
2013-04-24 11:14:00,80.5,63.9,30.16,SSW,200,3.5,3.5,57,0.00,CLR,SCT,0.00,WeatherDisplay:10.37,2013-04-24 15:14:00,
2013-04-24 11:15:00,80.5,63.9,30.16,SW,215,3.5,3.5,57,0.00,CLR,SCT,0.00,WeatherDisplay:10.37,2013-04-24 15:15:00,
2013-04-24 11:19:00,80.9,63.7,30.16,South,173,2.3,2.3,56,0.00,CLR,SCT,0.00,WeatherDisplay:10.37,2013-04-24 15:19:00,
2013-04-24 11:20:00,80.9,63.7,30.16,South,174,3.5,3.5,56,0.00,CLR,SCT,0.00,WeatherDisplay:10.37,2013-04-24 15:20:00,
2013-04-24 11:24:00,81.1,64.4,30.16,SSW,195,4.0,4.0,57,0.00,CLR,SCT,0.00,WeatherDisplay:10.37,2013-04-24 15:24:00,
2013-04-24 11:25:00,81.1,64.4,30.16,SSW,194,3.5,3.5,57,0.00,CLR,SCT,0.00,WeatherDisplay:10.37,2013-04-24 15:25:00,
2013-04-24 11:26:00,81.1,64.4,30.16,SSW,200,4.0,4.0,57,0.00,CLR,SCT,0.00,WeatherDisplay:10.37,2013-04-24 15:26:00,
2013-04-24 11:30:00,80.7,63.0,30.16,SE,129,1.0,6.0,55,0.00,CLR,SCT,0.00,WeatherDisplay:10.37,2013-04-24 15:30:00,
2013-04-24 11:31:00,80.5,62.8,30.15,SSW,208,4.6,4.6,55,0.00,CLR,SCT,0.00,WeatherDisplay:10.37,2013-04-24 15:31:00,
2013-04-24 11:35:00,80.7,63.0,30.15,ESE,111,2.0,5.0,55,0.00,CLR,SCT,0.00,WeatherDisplay:10.37,2013-04-24 15:35:00,
2013-04-24 11:36:00,81.0,63.8,30.15,ENE,78,3.5,3.5,56,0.00,CLR,SCT,0.00,WeatherDisplay:10.37,2013-04-24 15:36:00,
2013-04-24 11:40:00,81.3,63.6,30.15,NE,45,4.6,4.6,55,0.00,CLR,SCT,0.00,WeatherDisplay:10.37,2013-04-24 15:40:00,
2013-04-24 11:41:00,81.4,64.2,30.15,SW,232,2.3,2.3,56,0.00,CLR,SCT,0.00,WeatherDisplay:10.37,2013-04-24 15:41:00,
2013-04-24 11:42:00,81.5,64.8,30.15,ENE,68,5.0,5.0,57,0.00,CLR,SCT,0.00,WeatherDisplay:10.37,2013-04-24 15:42:00,
2013-04-24 11:45:00,81.7,64.0,30.15,ESE,102,0.0,5.0,55,0.00,CLR,SCT,0.00,WeatherDisplay:10.37,2013-04-24 15:45:00,
2013-04-24 11:46:00,81.9,63.6,30.15,SE,138,3.0,3.0,54,0.00,CLR,SCT,0.00,WeatherDisplay:10.37,2013-04-24 15:46:00,
2013-04-24 11:47:00,81.9,62.5,30.15,SSE,163,3.5,3.5,52,0.00,CLR,SCT,0.00,WeatherDisplay:10.37,2013-04-24 15:47:00,
2013-04-24 11:50:00,82.2,62.8,30.14,SSE,148,3.5,3.5,52,0.00,CLR,SCT,0.00,WeatherDisplay:10.37,2013-04-24 15:50:00,
2013-04-24 11:51:00,82.3,63.5,30.14,SSE,166,2.3,2.3,53,0.00,CLR,SCT,0.00,WeatherDisplay:10.37,2013-04-24 15:51:00,
2013-04-24 11:52:00,82.3,63.5,30.14,NE,46,3.5,3.5,53,0.00,CLR,SCT,0.00,WeatherDisplay:10.37,2013-04-24 15:52:00,
2013-04-24 11:56:00,82.5,63.1,30.14,ENE,61,2.3,2.3,52,0.00,CLR,SCT,0.00,WeatherDisplay:10.37,2013-04-24 15:56:00,
2013-04-24 11:57:00,82.4,63.0,30.14,NNE,27,3.5,3.5,52,0.00,CLR,SCT,0.00,WeatherDisplay:10.37,2013-04-24 15:57:00,
2013-04-24 11:58:00,82.4,63.0,30.14,SE,141,3.5,3.5,52,0.00,CLR,SCT,0.00,WeatherDisplay:10.37,2013-04-24 15:58:00,
2013-04-24 12:01:00,82.6,64.3,30.14,ENE,74,3.0,3.0,54,0.00,CLR,SCT,0.00,WeatherDisplay:10.37,2013-04-24 16:01:00,
2013-04-24 12:02:00,82.8,63.4,30.14,SW,225,3.5,3.5,52,0.00,CLR,SCT,0.00,WeatherDisplay:10.37,2013-04-24 16:02:00,
2013-04-24 12:03:00,82.8,63.4,30.14,North,10,4.6,4.6,52,0.00,CLR,SCT,0.00,WeatherDisplay:10.37,2013-04-24 16:03:00,
2013-04-24 12:06:00,82.9,62.9,30.14,SSW,198,2.3,2.3,51,0.00,CLR,SCT,0.00,WeatherDisplay:10.37,2013-04-24 16:06:00,
2013-04-24 12:08:00,83.0,63.6,30.14,SW,219,3.5,3.5,52,0.00,CLR,SCT,0.00,WeatherDisplay:10.37,2013-04-24 16:08:00,
2013-04-24 12:11:00,83.1,63.1,30.14,SSW,210,3.5,3.5,51,0.00,CLR,SCT,0.00,WeatherDisplay:10.37,2013-04-24 16:11:00,
2013-04-24 12:12:00,83.1,63.1,30.14,SE,141,3.5,3.5,51,0.00,CLR,SCT,0.00,WeatherDisplay:10.37,2013-04-24 16:12:00,
2013-04-24 12:13:00,83.2,63.2,30.14,SE,129,3.5,3.5,51,0.00,CLR,SCT,0.00,WeatherDisplay:10.37,2013-04-24 16:13:00,
2013-04-24 12:16:00,83.5,63.5,30.14,South,184,2.3,2.3,51,0.00,CLR,SCT,0.00,WeatherDisplay:10.37,2013-04-24 16:16:00,
2013-04-24 12:17:00,83.6,63.6,30.14,SW,233,2.3,2.3,51,0.00,CLR,SCT,0.00,WeatherDisplay:10.37,2013-04-24 16:17:00,
2013-04-24 12:18:00,83.8,63.7,30.14,SE,146,2.3,2.3,51,0.00,CLR,SCT,0.00,WeatherDisplay:10.37,2013-04-24 16:18:00,
2013-04-24 12:19:00,83.8,63.2,30.14,SW,229,3.5,3.5,50,0.00,CLR,SCT,0.00,WeatherDisplay:10.37,2013-04-24 16:19:00,
2013-04-24 12:21:00,84.2,63.0,30.14,SSE,166,3.5,3.5,49,0.00,CLR,SCT,0.00,WeatherDisplay:10.37,2013-04-24 16:21:00,
2013-04-24 12:22:00,84.2,63.5,30.14,SSW,212,3.5,3.5,50,0.00,CLR,SCT,0.00,WeatherDisplay:10.37,2013-04-24 16:22:00,
2013-04-24 12:23:00,84.2,63.0,30.14,SW,228,4.6,4.6,49,0.00,CLR,SCT,0.00,WeatherDisplay:10.37,2013-04-24 16:23:00,
2013-04-24 12:24:00,84.2,63.0,30.14,SSE,159,3.5,3.5,49,0.00,CLR,SCT,0.00,WeatherDisplay:10.37,2013-04-24 16:24:00,
2013-04-24 12:26:00,84.4,63.7,30.14,NE,41,2.0,0.0,50,0.00,CLR,SCT,0.00,WeatherDisplay:10.37,2013-04-24 16:26:00,
2013-04-24 12:27:00,84.4,64.3,30.14,NE,41,2.3,2.3,51,0.00,CLR,SCT,0.00,WeatherDisplay:10.37,2013-04-24 16:27:00,
2013-04-24 12:28:00,84.6,64.5,30.14,SSW,207,4.0,4.0,51,0.00,CLR,SCT,0.00,WeatherDisplay:10.37,2013-04-24 16:28:00,
2013-04-24 12:29:00,84.6,64.5,30.14,SW,217,5.8,5.8,51,0.00,CLR,SCT,0.00,WeatherDisplay:10.37,2013-04-24 16:29:00,
2013-04-24 12:32:00,84.7,64.6,30.14,South,172,2.3,2.3,51,0.00,CLR,SCT,0.00,WeatherDisplay:10.37,2013-04-24 16:32:00,
2013-04-24 12:34:00,84.7,64.0,30.13,NE,49,3.5,3.5,50,0.00,CLR,SCT,0.00,WeatherDisplay:10.37,2013-04-24 16:34:00,
2013-04-24 12:37:00,84.5,63.2,30.13,ENE,68,2.3,2.3,49,0.00,CLR,SCT,0.00,WeatherDisplay:10.37,2013-04-24 16:37:00,
2013-04-24 12:39:00,84.3,62.5,30.13,SSW,204,2.3,0.0,48,0.00,CLR,SCT,0.00,WeatherDisplay:10.37,2013-04-24 16:39:00,
2013-04-24 12:42:00,84.6,62.7,30.13,NE,55,2.3,2.3,48,0.00,CLR,SCT,0.00,WeatherDisplay:10.37,2013-04-24 16:42:00,
2013-04-24 12:43:00,84.7,63.4,30.13,SE,136,3.5,3.5,49,0.00,CLR,SCT,0.00,WeatherDisplay:10.37,2013-04-24 16:43:00,
2013-04-24 12:44:00,84.9,63.0,30.13,South,173,2.3,2.3,48,0.00,CLR,SCT,0.00,WeatherDisplay:10.37,2013-04-24 16:44:00,
2013-04-24 12:45:00,84.9,63.0,30.13,South,174,2.3,2.3,48,0.00,CLR,SCT,0.00,WeatherDisplay:10.37,2013-04-24 16:45:00,
2013-04-24 12:47:00,85.0,63.1,30.12,SSW,212,1.1,1.1,48,0.00,CLR,SCT,0.00,WeatherDisplay:10.37,2013-04-24 16:47:00,
2013-04-24 12:48:00,85.1,63.2,30.13,SSE,166,2.3,2.3,48,0.00,CLR,SCT,0.00,WeatherDisplay:10.37,2013-04-24 16:48:00,
2013-04-24 12:49:00,85.3,63.4,30.12,ESE,114,3.5,3.5,48,0.00,CLR,SCT,0.00,WeatherDisplay:10.37,2013-04-24 16:49:00,
2013-04-24 12:50:00,85.4,62.9,30.12,SE,143,3.5,3.5,47,0.00,CLR,SCT,0.00,WeatherDisplay:10.37,2013-04-24 16:50:00,
2013-04-24 12:53:00,85.4,62.9,30.13,NE,56,2.3,2.3,47,0.00,CLR,SCT,0.00,WeatherDisplay:10.37,2013-04-24 16:53:00,
2013-04-24 12:54:00,85.4,62.9,30.13,SSE,148,2.3,2.3,47,0.00,CLR,SCT,0.00,WeatherDisplay:10.37,2013-04-24 16:54:00,
2013-04-24 12:55:00,85.5,63.0,30.13,SSE,166,1.0,5.0,47,0.00,CLR,SCT,0.00,WeatherDisplay:10.37,2013-04-24 16:55:00,
2013-04-24 12:58:00,85.3,62.2,30.12,WSW,257,2.3,2.3,46,0.00,CLR,SCT,0.00,WeatherDisplay:10.37,2013-04-24 16:58:00,
2013-04-24 12:59:00,85.3,61.6,30.12,NE,39,2.0,2.0,45,0.00,CLR,SCT,0.00,WeatherDisplay:10.37,2013-04-24 16:59:00,
2013-04-24 13:00:00,85.3,63.4,30.13,South,181,2.3,2.3,48,0.00,CLR,SCT,0.00,WeatherDisplay:10.37,2013-04-24 17:00:00,
2013-04-24 13:01:00,85.3,62.8,30.13,NNE,25,2.3,2.3,47,0.00,CLR,SCT,0.00,WeatherDisplay:10.37,2013-04-24 17:01:00,
2013-04-24 13:03:00,85.5,62.4,30.13,SSE,153,2.3,2.3,46,0.00,CLR,SCT,0.00,WeatherDisplay:10.37,2013-04-24 17:03:00,
2013-04-24 13:04:00,85.5,63.0,30.13,ENE,61,4.0,4.0,47,0.00,CLR,SCT,0.00,WeatherDisplay:10.37,2013-04-24 17:04:00,
2013-04-24 13:05:00,85.3,62.2,30.13,NE,46,3.5,3.5,46,0.00,CLR,SCT,0.00,WeatherDisplay:10.37,2013-04-24 17:05:00,
2013-04-24 13:06:00,85.3,62.8,30.13,NE,46,1.1,0.0,47,0.00,CLR,SCT,0.00,WeatherDisplay:10.37,2013-04-24 17:06:00,
2013-04-24 13:08:00,85.3,62.2,30.12,SSW,205,3.0,3.0,46,0.00,CLR,SCT,0.00,WeatherDisplay:10.37,2013-04-24 17:08:00,
2013-04-24 13:09:00,85.3,62.2,30.12,SSW,204,3.5,3.5,46,0.00,CLR,SCT,0.00,WeatherDisplay:10.37,2013-04-24 17:09:00,
2013-04-24 13:10:00,85.3,62.8,30.12,South,170,2.3,2.3,47,0.00,CLR,SCT,0.00,WeatherDisplay:10.37,2013-04-24 17:10:00,
2013-04-24 13:11:00,85.4,62.3,30.12,WSW,242,3.5,3.5,46,0.00,CLR,SCT,0.00,WeatherDisplay:10.37,2013-04-24 17:11:00,
2013-04-24 13:13:00,85.4,62.9,30.13,SW,226,2.3,2.3,47,0.00,CLR,SCT,0.00,WeatherDisplay:10.37,2013-04-24 17:13:00,
2013-04-24 13:14:00,85.4,62.9,30.13,SSW,198,3.5,3.5,47,0.00,CLR,SCT,0.00,WeatherDisplay:10.37,2013-04-24 17:14:00,
2013-04-24 13:16:00,85.4,63.5,30.13,ESE,108,1.1,0.0,48,0.00,CLR,SCT,0.00,WeatherDisplay:10.37,2013-04-24 17:16:00,
2013-04-24 13:17:00,85.5,63.6,30.12,SSW,203,1.1,1.1,48,0.00,CLR,SCT,0.00,WeatherDisplay:10.37,2013-04-24 17:17:00,
2013-04-24 13:19:00,85.8,63.2,30.12,SE,134,2.3,2.3,47,0.00,CLR,SCT,0.00,WeatherDisplay:10.37,2013-04-24 17:19:00,
2013-04-24 13:20:00,85.9,63.3,30.12,SSW,200,2.3,2.3,47,0.00,CLR,SCT,0.00,WeatherDisplay:10.37,2013-04-24 17:20:00,
2013-04-24 13:21:00,86.1,63.5,30.12,SW,224,3.5,3.5,47,0.00,CLR,SCT,0.00,WeatherDisplay:10.37,2013-04-24 17:21:00,
2013-04-24 13:24:00,86.2,63.0,30.12,South,188,3.5,3.5,46,0.00,CLR,SCT,0.00,WeatherDisplay:10.37,2013-04-24 17:24:00,
2013-04-24 13:25:00,86.2,64.2,30.12,WSW,240,3.5,3.5,48,0.00,CLR,SCT,0.00,WeatherDisplay:10.37,2013-04-24 17:25:00,
2013-04-24 13:26:00,86.3,63.7,30.12,South,174,5.0,5.0,47,0.00,CLR,SCT,0.00,WeatherDisplay:10.37,2013-04-24 17:26:00,
2013-04-24 13:27:00,86.3,63.7,30.12,West,274,4.6,4.6,47,0.00,CLR,SCT,0.00,WeatherDisplay:10.37,2013-04-24 17:27:00,
2013-04-24 13:29:00,86.4,63.8,30.12,SSE,162,4.0,4.0,47,0.00,CLR,SCT,0.00,WeatherDisplay:10.37,2013-04-24 17:29:00,
2013-04-24 13:30:00,86.4,63.2,30.12,South,171,4.6,4.6,46,0.00,CLR,SCT,0.00,WeatherDisplay:10.37,2013-04-24 17:30:00,
2013-04-24 13:31:00,86.3,63.1,30.12,SSE,159,3.5,3.5,46,0.00,CLR,SCT,0.00,WeatherDisplay:10.37,2013-04-24 17:31:00,
2013-04-24 13:32:00,86.3,61.8,30.12,SSE,162,3.5,3.5,44,0.00,CLR,SCT,0.00,WeatherDisplay:10.37,2013-04-24 17:32:00,
2013-04-24 13:34:00,86.2,62.4,30.12,SE,142,2.3,2.3,45,0.00,CLR,SCT,0.00,WeatherDisplay:10.37,2013-04-24 17:34:00,
2013-04-24 13:35:00,86.1,63.5,30.12,West,266,3.0,3.0,47,0.00,CLR,SCT,0.00,WeatherDisplay:10.37,2013-04-24 17:35:00,
2013-04-24 13:37:00,86.2,63.0,30.12,South,191,1.1,1.1,46,0.00,CLR,SCT,0.00,WeatherDisplay:10.37,2013-04-24 17:37:00,
2013-04-24 13:39:00,86.3,63.7,30.12,SW,219,3.5,3.5,47,0.00,CLR,SCT,0.00,WeatherDisplay:10.37,2013-04-24 17:39:00,
2013-04-24 13:40:00,86.5,63.3,30.12,SSE,150,2.3,2.3,46,0.00,CLR,SCT,0.00,WeatherDisplay:10.37,2013-04-24 17:40:00,
2013-04-24 13:42:00,86.6,62.7,30.12,ENE,75,4.6,4.6,45,0.00,CLR,SCT,0.00,WeatherDisplay:10.37,2013-04-24 17:42:00,
2013-04-24 13:44:00,86.7,64.1,30.12,SSE,166,1.1,0.0,47,0.00,CLR,SCT,0.00,WeatherDisplay:10.37,2013-04-24 17:44:00,
2013-04-24 13:45:00,86.8,64.2,30.12,SSW,192,0.0,0.0,47,0.00,CLR,SCT,0.00,WeatherDisplay:10.37,2013-04-24 17:45:00,
2013-04-24 13:47:00,87.1,63.8,30.12,South,187,1.1,1.1,46,0.00,CLR,SCT,0.00,WeatherDisplay:10.37,2013-04-24 17:47:00,
2013-04-24 13:50:00,87.3,63.4,30.12,SSE,148,3.5,3.5,45,0.00,CLR,SCT,0.00,WeatherDisplay:10.37,2013-04-24 17:50:00,
2013-04-24 13:51:00,87.4,63.5,30.12,South,186,1.1,1.1,45,0.00,CLR,SCT,0.00,WeatherDisplay:10.37,2013-04-24 17:51:00,
2013-04-24 13:52:00,87.5,63.5,30.12,SSE,148,1.0,0.0,45,0.00,CLR,SCT,0.00,WeatherDisplay:10.37,2013-04-24 17:52:00,
2013-04-24 13:55:00,87.9,63.3,30.12,ESE,120,3.5,3.5,44,0.00,CLR,SCT,0.00,WeatherDisplay:10.37,2013-04-24 17:55:00,
2013-04-24 13:56:00,87.9,63.3,30.12,SE,128,3.5,3.5,44,0.00,CLR,SCT,0.00,WeatherDisplay:10.37,2013-04-24 17:56:00,
2013-04-24 13:57:00,87.7,62.4,30.12,SSE,165,3.5,3.5,43,0.00,CLR,SCT,0.00,WeatherDisplay:10.37,2013-04-24 17:57:00,
2013-04-24 14:00:00,87.6,62.3,30.12,ESE,120,1.1,0.0,43,0.00,CLR,SCT,0.00,WeatherDisplay:10.37,2013-04-24 18:00:00,
2013-04-24 14:01:00,87.6,64.3,30.12,West,264,1.1,1.1,46,0.00,CLR,SCT,0.00,WeatherDisplay:10.37,2013-04-24 18:01:00,
2013-04-24 14:02:00,87.6,62.3,30.12,SSE,167,3.5,3.5,43,0.00,CLR,SCT,0.00,WeatherDisplay:10.37,2013-04-24 18:02:00,
2013-04-24 14:05:00,87.1,62.5,30.12,WSW,256,2.3,2.3,44,0.00,CLR,SCT,0.00,WeatherDisplay:10.37,2013-04-24 18:05:00,
2013-04-24 14:06:00,87.1,62.5,30.12,South,174,2.3,2.3,44,0.00,CLR,SCT,0.00,WeatherDisplay:10.37,2013-04-24 18:06:00,
2013-04-24 14:07:00,86.8,62.9,30.12,SSE,167,3.5,3.5,45,0.00,CLR,SCT,0.00,WeatherDisplay:10.37,2013-04-24 18:07:00,
2013-04-24 14:08:00,86.8,62.9,30.12,SSW,198,1.1,1.1,45,0.00,CLR,SCT,0.00,WeatherDisplay:10.37,2013-04-24 18:08:00,
2013-04-24 14:10:00,86.9,62.4,30.12,ESE,111,1.1,1.1,44,0.00,CLR,SCT,0.00,WeatherDisplay:10.37,2013-04-24 18:10:00,
2013-04-24 14:11:00,86.9,63.0,30.12,South,190,1.1,1.1,45,0.00,CLR,SCT,0.00,WeatherDisplay:10.37,2013-04-24 18:11:00,
2013-04-24 14:13:00,87.1,62.5,30.12,South,188,3.5,3.5,44,0.00,CLR,SCT,0.00,WeatherDisplay:10.37,2013-04-24 18:13:00,
2013-04-24 14:15:00,87.4,63.5,30.11,ESE,118,2.3,0.0,45,0.00,CLR,SCT,0.00,WeatherDisplay:10.37,2013-04-24 18:15:00,
2013-04-24 14:16:00,87.5,62.2,30.11,West,273,2.0,2.0,43,0.00,CLR,SCT,0.00,WeatherDisplay:10.37,2013-04-24 18:16:00,
2013-04-24 14:18:00,87.5,62.9,30.11,SSE,150,1.1,1.1,44,0.00,CLR,SCT,0.00,WeatherDisplay:10.37,2013-04-24 18:18:00,
2013-04-24 14:21:00,87.5,62.9,30.11,South,170,3.5,3.5,44,0.00,CLR,SCT,0.00,WeatherDisplay:10.37,2013-04-24 18:21:00,
2013-04-24 14:23:00,87.4,62.8,30.11,SSW,210,2.3,2.3,44,0.00,CLR,SCT,0.00,WeatherDisplay:10.37,2013-04-24 18:23:00,
2013-04-24 14:24:00,87.4,62.2,30.11,SSW,204,3.5,3.5,43,0.00,CLR,SCT,0.00,WeatherDisplay:10.37,2013-04-24 18:24:00,
2013-04-24 14:26:00,87.5,63.5,30.11,NE,44,1.0,0.0,45,0.00,CLR,SCT,0.00,WeatherDisplay:10.37,2013-04-24 18:26:00,
2013-04-24 14:27:00,87.5,62.9,30.11,SSW,195,2.3,2.3,44,0.00,CLR,SCT,0.00,WeatherDisplay:10.37,2013-04-24 18:27:00,
2013-04-24 14:28:00,87.7,63.7,30.11,SSE,158,2.3,2.3,45,0.00,CLR,SCT,0.00,WeatherDisplay:10.37,2013-04-24 18:28:00,
2013-04-24 14:29:00,87.7,63.7,30.11,SSE,162,2.0,2.0,45,0.00,CLR,SCT,0.00,WeatherDisplay:10.37,2013-04-24 18:29:00,
2013-04-24 14:31:00,88.0,63.4,30.11,West,273,3.5,3.5,44,0.00,CLR,SCT,0.00,WeatherDisplay:10.37,2013-04-24 18:31:00,
2013-04-24 14:32:00,88.1,63.4,30.11,South,191,2.0,2.0,44,0.00,CLR,SCT,0.00,WeatherDisplay:10.37,2013-04-24 18:32:00,
2013-04-24 14:34:00,88.2,63.5,30.11,SSE,166,1.1,1.1,44,0.00,CLR,SCT,0.00,WeatherDisplay:10.37,2013-04-24 18:34:00,
2013-04-24 14:35:00,88.4,63.7,30.11,South,184,3.5,3.5,44,0.00,CLR,SCT,0.00,WeatherDisplay:10.37,2013-04-24 18:35:00,
2013-04-24 14:36:00,88.4,62.4,30.11,WSW,252,2.3,2.3,42,0.00,CLR,SCT,0.00,WeatherDisplay:10.37,2013-04-24 18:36:00,
2013-04-24 14:37:00,88.4,62.4,30.11,SW,231,2.3,2.3,42,0.00,CLR,SCT,0.00,WeatherDisplay:10.37,2013-04-24 18:37:00,
2013-04-24 14:40:00,88.4,63.1,30.11,SSW,212,0.0,2.0,43,0.00,CLR,SCT,0.00,WeatherDisplay:10.37,2013-04-24 18:40:00,
2013-04-24 14:41:00,88.5,63.1,30.11,NNE,27,0.0,0.0,43,0.00,CLR,SCT,0.00,WeatherDisplay:10.37,2013-04-24 18:41:00,
2013-04-24 14:42:00,88.6,62.6,30.11,SE,145,3.5,3.5,42,0.00,CLR,SCT,0.00,WeatherDisplay:10.37,2013-04-24 18:42:00,
2013-04-24 14:45:00,88.6,62.6,30.10,SSE,162,2.3,2.3,42,0.00,CLR,SCT,0.00,WeatherDisplay:10.37,2013-04-24 18:45:00,
2013-04-24 14:46:00,88.6,62.6,30.10,SSW,207,1.1,0.0,42,0.00,CLR,SCT,0.00,WeatherDisplay:10.37,2013-04-24 18:46:00,
2013-04-24 14:47:00,88.6,62.6,30.10,SSW,200,0.0,0.0,42,0.00,CLR,SCT,0.00,WeatherDisplay:10.37,2013-04-24 18:47:00,
2013-04-24 14:48:00,88.6,63.2,30.10,SSW,201,0.0,0.0,43,0.00,CLR,SCT,0.00,WeatherDisplay:10.37,2013-04-24 18:48:00,
2013-04-24 14:50:00,88.8,62.7,30.10,SE,137,2.3,2.3,42,0.00,CLR,SCT,0.00,WeatherDisplay:10.37,2013-04-24 18:50:00,
2013-04-24 14:51:00,88.9,62.8,30.10,West,273,3.0,3.0,42,0.00,CLR,SCT,0.00,WeatherDisplay:10.37,2013-04-24 18:51:00,
2013-04-24 14:53:00,88.8,62.1,30.10,SSE,148,4.0,4.0,41,0.00,CLR,SCT,0.00,WeatherDisplay:10.37,2013-04-24 18:53:00,
2013-04-24 14:55:00,88.6,62.6,30.10,West,280,1.1,0.0,42,0.00,CLR,SCT,0.00,WeatherDisplay:10.37,2013-04-24 18:55:00,
2013-04-24 14:56:00,88.6,62.6,30.10,NE,56,1.1,1.1,42,0.00,CLR,SCT,0.00,WeatherDisplay:10.37,2013-04-24 18:56:00,
2013-04-24 14:58:00,88.6,62.6,30.10,SSE,167,1.1,1.1,42,0.00,CLR,SCT,0.00,WeatherDisplay:10.37,2013-04-24 18:58:00,
2013-04-24 15:00:00,88.7,62.7,30.10,NW,304,2.3,2.3,42,0.00,CLR,SCT,0.00,WeatherDisplay:10.37,2013-04-24 19:00:00,
2013-04-24 15:01:00,88.8,62.7,30.10,SSE,148,2.3,2.3,42,0.00,CLR,SCT,0.00,WeatherDisplay:10.37,2013-04-24 19:01:00,
2013-04-24 15:03:00,88.9,61.5,30.10,SE,133,4.6,4.6,40,0.00,CLR,SCT,0.00,WeatherDisplay:10.37,2013-04-24 19:03:00,
2013-04-24 15:05:00,88.8,61.4,30.10,SSE,152,3.5,3.5,40,0.00,CLR,SCT,0.00,WeatherDisplay:10.37,2013-04-24 19:05:00,
2013-04-24 15:07:00,88.7,62.0,30.10,ESE,105,4.6,4.6,41,0.00,CLR,SCT,0.00,WeatherDisplay:10.37,2013-04-24 19:07:00,
2013-04-24 15:08:00,88.7,62.0,30.10,South,190,2.3,2.3,41,0.00,CLR,SCT,0.00,WeatherDisplay:10.37,2013-04-24 19:08:00,
2013-04-24 15:09:00,88.7,62.7,30.10,SSE,156,2.3,2.3,42,0.00,CLR,SCT,0.00,WeatherDisplay:10.37,2013-04-24 19:09:00,
2013-04-24 15:10:00,88.7,61.3,30.10,South,179,5.8,5.8,40,0.00,CLR,SCT,0.00,WeatherDisplay:10.37,2013-04-24 19:10:00,
2013-04-24 15:12:00,88.6,60.5,30.10,SSW,210,3.5,3.5,39,0.00,CLR,SCT,0.00,WeatherDisplay:10.37,2013-04-24 19:12:00,
2013-04-24 15:13:00,88.6,61.2,30.10,SSE,150,3.5,3.5,40,0.00,CLR,SCT,0.00,WeatherDisplay:10.37,2013-04-24 19:13:00,
2013-04-24 15:14:00,88.6,61.2,30.10,SE,130,2.3,2.3,40,0.00,CLR,SCT,0.00,WeatherDisplay:10.37,2013-04-24 19:14:00,
2013-04-24 15:15:00,88.6,61.9,30.10,East,79,2.3,2.3,41,0.00,CLR,SCT,0.00,WeatherDisplay:10.37,2013-04-24 19:15:00,
2013-04-24 15:17:00,88.5,62.5,30.10,NNE,18,1.1,0.0,42,0.00,CLR,SCT,0.00,WeatherDisplay:10.37,2013-04-24 19:17:00,
2013-04-24 15:18:00,88.6,62.6,30.10,NNE,22,1.1,0.0,42,0.00,CLR,SCT,0.00,WeatherDisplay:10.37,2013-04-24 19:18:00,
2013-04-24 15:19:00,88.6,62.6,30.10,NNE,33,0.0,0.0,42,0.00,CLR,SCT,0.00,WeatherDisplay:10.37,2013-04-24 19:19:00,
2013-04-24 15:20:00,88.8,63.4,30.10,SE,126,0.0,0.0,43,0.00,CLR,SCT,0.00,WeatherDisplay:10.37,2013-04-24 19:20:00,
2013-04-24 15:22:00,89.0,62.9,30.10,SSW,212,2.3,2.3,42,0.00,CLR,SCT,0.00,WeatherDisplay:10.37,2013-04-24 19:22:00,
2013-04-24 15:23:00,89.1,61.6,30.09,NW,317,3.5,3.5,40,0.00,CLR,SCT,0.00,WeatherDisplay:10.37,2013-04-24 19:23:00,
2013-04-24 15:24:00,89.1,62.3,30.09,NNW,328,1.1,0.0,41,0.00,CLR,SCT,0.00,WeatherDisplay:10.37,2013-04-24 19:24:00,
2013-04-24 15:26:00,89.3,62.5,30.09,SW,215,1.1,1.1,41,0.00,CLR,SCT,0.00,WeatherDisplay:10.37,2013-04-24 19:26:00,
2013-04-24 15:27:00,89.3,61.1,30.09,SSW,195,2.3,2.3,39,0.00,CLR,SCT,0.00,WeatherDisplay:10.37,2013-04-24 19:27:00,
2013-04-24 15:28:00,89.4,61.9,30.10,ESE,111,3.5,3.5,40,0.00,CLR,SCT,0.00,WeatherDisplay:10.37,2013-04-24 19:28:00,
2013-04-24 15:29:00,89.4,61.9,30.09,ENE,71,2.3,2.3,40,0.00,CLR,SCT,0.00,WeatherDisplay:10.37,2013-04-24 19:29:00,
2013-04-24 15:31:00,89.3,61.8,30.09,SW,224,2.3,2.3,40,0.00,CLR,SCT,0.00,WeatherDisplay:10.37,2013-04-24 19:31:00,
2013-04-24 15:33:00,89.2,61.0,30.09,SE,136,3.5,3.5,39,0.00,CLR,SCT,0.00,WeatherDisplay:10.37,2013-04-24 19:33:00,
2013-04-24 15:34:00,89.2,62.4,30.09,ENE,61,0.0,0.0,41,0.00,CLR,SCT,0.00,WeatherDisplay:10.37,2013-04-24 19:34:00,
2013-04-24 15:35:00,89.2,62.4,30.09,ENE,76,0.0,0.0,41,0.00,CLR,SCT,0.00,WeatherDisplay:10.37,2013-04-24 19:35:00,
2013-04-24 15:36:00,89.4,63.3,30.09,SE,145,1.1,0.0,42,0.00,CLR,SCT,0.00,WeatherDisplay:10.37,2013-04-24 19:36:00,
2013-04-24 15:38:00,89.6,62.8,30.09,NNW,330,1.1,1.1,41,0.00,CLR,SCT,0.00,WeatherDisplay:10.37,2013-04-24 19:38:00,
2013-04-24 15:39:00,89.7,62.9,30.09,NE,55,1.1,1.1,41,0.00,CLR,SCT,0.00,WeatherDisplay:10.37,2013-04-24 19:39:00,
2013-04-24 15:40:00,89.7,62.2,30.09,ESE,122,0.0,1.0,40,0.00,CLR,SCT,0.00,WeatherDisplay:10.37,2013-04-24 19:40:00,
2013-04-24 15:42:00,89.9,61.6,30.09,NE,54,2.3,2.3,39,0.00,CLR,SCT,0.00,WeatherDisplay:10.37,2013-04-24 19:42:00,
2013-04-24 15:43:00,89.9,62.3,30.09,South,174,1.0,0.0,40,0.00,CLR,SCT,0.00,WeatherDisplay:10.37,2013-04-24 19:43:00,
2013-04-24 15:44:00,89.8,60.8,30.09,WSW,243,3.5,3.5,38,0.00,CLR,SCT,0.00,WeatherDisplay:10.37,2013-04-24 19:44:00,
2013-04-24 15:45:00,89.7,61.5,30.09,SW,217,3.5,3.5,39,0.00,CLR,SCT,0.00,WeatherDisplay:10.37,2013-04-24 19:45:00,
2013-04-24 15:47:00,89.5,60.5,30.09,SSE,165,2.3,2.3,38,0.00,CLR,SCT,0.00,WeatherDisplay:10.37,2013-04-24 19:47:00,
2013-04-24 15:48:00,89.5,60.5,30.09,South,170,3.5,3.5,38,0.00,CLR,SCT,0.00,WeatherDisplay:10.37,2013-04-24 19:48:00,
2013-04-24 15:50:00,89.5,59.8,30.09,South,186,3.5,3.5,37,0.00,CLR,SCT,0.00,WeatherDisplay:10.37,2013-04-24 19:50:00,
2013-04-24 15:51:00,89.5,59.8,30.08,SW,235,2.3,2.3,37,0.00,CLR,SCT,0.00,WeatherDisplay:10.37,2013-04-24 19:51:00,
2013-04-24 15:52:00,89.6,60.6,30.08,SW,218,1.1,0.0,38,0.00,CLR,SCT,0.00,WeatherDisplay:10.37,2013-04-24 19:52:00,
2013-04-24 15:53:00,89.6,61.4,30.08,SSE,150,0.0,0.0,39,0.00,CLR,SCT,0.00,WeatherDisplay:10.37,2013-04-24 19:53:00,
2013-04-24 15:54:00,89.7,60.0,30.08,SSW,212,2.3,2.3,37,0.00,CLR,SCT,0.00,WeatherDisplay:10.37,2013-04-24 19:54:00,
2013-04-24 15:55:00,89.8,60.8,30.08,SW,229,2.3,2.3,38,0.00,CLR,SCT,0.00,WeatherDisplay:10.37,2013-04-24 19:55:00,
2013-04-24 15:56:00,89.8,60.8,30.08,SSW,198,2.3,2.3,38,0.00,CLR,SCT,0.00,WeatherDisplay:10.37,2013-04-24 19:56:00,
2013-04-24 15:57:00,89.8,61.5,30.08,ESE,109,2.3,2.3,39,0.00,CLR,SCT,0.00,WeatherDisplay:10.37,2013-04-24 19:57:00,
2013-04-24 15:58:00,89.9,61.6,30.08,ENE,76,1.1,1.1,39,0.00,CLR,SCT,0.00,WeatherDisplay:10.37,2013-04-24 19:58:00,
2013-04-24 16:00:00,89.9,61.6,30.08,NE,45,1.1,0.0,39,0.00,CLR,SCT,0.00,WeatherDisplay:10.37,2013-04-24 20:00:00,
2013-04-24 16:01:00,90.0,61.0,30.08,West,273,1.1,1.1,38,0.00,CLR,SCT,0.00,WeatherDisplay:10.37,2013-04-24 20:01:00,
2013-04-24 16:02:00,90.0,60.2,30.08,SSW,212,1.1,1.1,37,0.00,CLR,SCT,0.00,WeatherDisplay:10.37,2013-04-24 20:02:00,
2013-04-24 16:03:00,90.0,60.2,30.08,SSE,163,2.3,2.3,37,0.00,CLR,SCT,0.00,WeatherDisplay:10.37,2013-04-24 20:03:00,
2013-04-24 16:05:00,90.1,60.3,30.08,SW,231,1.1,1.1,37,0.00,CLR,SCT,0.00,WeatherDisplay:10.37,2013-04-24 20:05:00,
2013-04-24 16:07:00,90.2,60.4,30.08,WSW,257,1.1,1.1,37,0.00,CLR,SCT,0.00,WeatherDisplay:10.37,2013-04-24 20:07:00,
2013-04-24 16:09:00,90.1,60.3,30.08,WSW,249,1.1,1.1,37,0.00,CLR,SCT,0.00,WeatherDisplay:10.37,2013-04-24 20:09:00,
2013-04-24 16:10:00,90.2,60.4,30.08,SW,223,0.0,1.0,37,0.00,CLR,SCT,0.00,WeatherDisplay:10.37,2013-04-24 20:10:00,
2013-04-24 16:11:00,90.3,59.7,30.08,West,274,2.3,2.3,36,0.00,CLR,SCT,0.00,WeatherDisplay:10.37,2013-04-24 20:11:00,
2013-04-24 16:12:00,90.3,59.7,30.08,WSW,245,2.3,2.3,36,0.00,CLR,SCT,0.00,WeatherDisplay:10.37,2013-04-24 20:12:00,
2013-04-24 16:14:00,90.3,58.1,30.08,WSW,253,3.5,3.5,34,0.00,CLR,SCT,0.00,WeatherDisplay:10.37,2013-04-24 20:14:00,
2013-04-24 16:15:00,90.3,58.1,30.08,NW,325,1.1,1.1,34,0.00,CLR,SCT,0.00,WeatherDisplay:10.37,2013-04-24 20:15:00,
2013-04-24 16:16:00,90.2,59.6,30.08,NNE,30,1.1,0.0,36,0.00,CLR,SCT,0.00,WeatherDisplay:10.37,2013-04-24 20:16:00,
2013-04-24 16:17:00,90.3,59.7,30.08,West,280,0.0,0.3,36,0.00,CLR,SCT,0.00,WeatherDisplay:10.37,2013-04-24 20:17:00,
2013-04-24 16:19:00,90.5,59.9,30.08,ESE,122,0.0,0.0,36,0.00,CLR,SCT,0.00,WeatherDisplay:10.37,2013-04-24 20:19:00,
2013-04-24 16:20:00,90.6,60.0,30.08,ENE,77,1.1,0.0,36,0.00,CLR,SCT,0.00,WeatherDisplay:10.37,2013-04-24 20:20:00,
2013-04-24 16:21:00,90.8,60.9,30.08,SSE,150,1.0,1.0,37,0.00,CLR,SCT,0.00,WeatherDisplay:10.37,2013-04-24 20:21:00,
2013-04-24 16:23:00,91.1,60.4,30.08,West,278,2.3,2.3,36,0.00,CLR,SCT,0.00,WeatherDisplay:10.37,2013-04-24 20:23:00,
2013-04-24 16:24:00,91.3,58.2,30.08,SSE,153,2.3,2.3,33,0.00,CLR,SCT,0.00,WeatherDisplay:10.37,2013-04-24 20:24:00,
2013-04-24 16:25:00,91.3,58.2,30.08,SW,214,1.0,0.0,33,0.00,CLR,SCT,0.00,WeatherDisplay:10.37,2013-04-24 20:25:00,
2013-04-24 16:26:00,91.5,60.0,30.08,WSW,246,2.3,2.3,35,0.00,CLR,SCT,0.00,WeatherDisplay:10.37,2013-04-24 20:26:00,
2013-04-24 16:28:00,91.5,58.3,30.08,SSW,212,1.1,1.1,33,0.00,CLR,SCT,0.00,WeatherDisplay:10.37,2013-04-24 20:28:00,
2013-04-24 16:29:00,91.5,59.2,30.08,West,266,1.1,1.1,34,0.00,CLR,SCT,0.00,WeatherDisplay:10.37,2013-04-24 20:29:00,
2013-04-24 16:30:00,91.5,59.2,30.08,SSW,193,4.0,4.0,34,0.00,CLR,SCT,0.00,WeatherDisplay:10.37,2013-04-24 20:30:00,
2013-04-24 16:32:00,91.4,59.1,30.08,SSW,208,1.1,1.1,34,0.00,CLR,SCT,0.00,WeatherDisplay:10.37,2013-04-24 20:32:00,
2013-04-24 16:33:00,91.4,59.1,30.08,SSW,204,0.0,0.0,34,0.00,CLR,SCT,0.00,WeatherDisplay:10.37,2013-04-24 20:33:00,
2013-04-24 16:34:00,91.5,60.0,30.08,South,183,0.0,0.0,35,0.00,CLR,SCT,0.00,WeatherDisplay:10.37,2013-04-24 20:34:00,
2013-04-24 16:35:00,91.5,60.8,30.08,SE,145,0.0,0.1,36,0.00,CLR,SCT,0.00,WeatherDisplay:10.37,2013-04-24 20:35:00,
2013-04-24 16:37:00,91.5,59.2,30.08,SSE,149,3.5,3.5,34,0.00,CLR,SCT,0.00,WeatherDisplay:10.37,2013-04-24 20:37:00,
2013-04-24 16:38:00,91.5,60.0,30.07,South,179,3.5,3.5,35,0.00,CLR,SCT,0.00,WeatherDisplay:10.37,2013-04-24 20:38:00,
2013-04-24 16:39:00,91.5,59.2,30.08,South,188,1.1,1.1,34,0.00,CLR,SCT,0.00,WeatherDisplay:10.37,2013-04-24 20:39:00,
2013-04-24 16:40:00,91.5,60.0,30.08,NNE,16,0.0,0.1,35,0.00,CLR,SCT,0.00,WeatherDisplay:10.37,2013-04-24 20:40:00,
2013-04-24 16:42:00,91.4,59.1,30.07,West,278,1.0,1.0,34,0.00,CLR,SCT,0.00,WeatherDisplay:10.37,2013-04-24 20:42:00,
2013-04-24 16:43:00,91.4,59.1,30.08,SW,227,2.3,2.3,34,0.00,CLR,SCT,0.00,WeatherDisplay:10.37,2013-04-24 20:43:00,
2013-04-24 16:44:00,91.4,59.1,30.07,SE,136,1.1,1.1,34,0.00,CLR,SCT,0.00,WeatherDisplay:10.37,2013-04-24 20:44:00,
2013-04-24 16:45:00,91.4,59.1,30.07,South,176,0.0,2.0,34,0.00,CLR,SCT,0.00,WeatherDisplay:10.37,2013-04-24 20:45:00,
2013-04-24 16:46:00,91.4,59.1,30.07,SE,130,3.5,3.5,34,0.00,CLR,SCT,0.00,WeatherDisplay:10.37,2013-04-24 20:46:00,
2013-04-24 16:47:00,91.4,59.9,30.07,SSW,212,2.3,0.0,35,0.00,CLR,SCT,0.00,WeatherDisplay:10.37,2013-04-24 20:47:00,
2013-04-24 16:48:00,91.4,59.9,30.07,South,174,1.1,1.1,35,0.00,CLR,SCT,0.00,WeatherDisplay:10.37,2013-04-24 20:48:00,
2013-04-24 16:49:00,91.4,59.9,30.07,South,174,2.3,2.3,35,0.00,CLR,SCT,0.00,WeatherDisplay:10.37,2013-04-24 20:49:00,
2013-04-24 16:50:00,91.5,59.2,30.07,SW,235,2.3,2.3,34,0.00,CLR,SCT,0.00,WeatherDisplay:10.37,2013-04-24 20:50:00,
2013-04-24 16:52:00,91.7,60.2,30.07,South,187,2.0,2.0,35,0.00,CLR,SCT,0.00,WeatherDisplay:10.37,2013-04-24 20:52:00,
2013-04-24 16:53:00,91.7,59.3,30.07,SW,224,2.3,2.3,34,0.00,CLR,SCT,0.00,WeatherDisplay:10.37,2013-04-24 20:53:00,
2013-04-24 16:54:00,91.6,60.1,30.07,SW,217,1.1,1.1,35,0.00,CLR,SCT,0.00,WeatherDisplay:10.37,2013-04-24 20:54:00,
2013-04-24 16:55:00,91.7,60.2,30.07,ESE,110,1.1,0.0,35,0.00,CLR,SCT,0.00,WeatherDisplay:10.37,2013-04-24 20:55:00,
2013-04-24 16:57:00,91.6,59.3,30.07,SSW,193,3.5,3.5,34,0.00,CLR,SCT,0.00,WeatherDisplay:10.37,2013-04-24 20:57:00,
2013-04-24 16:58:00,91.6,59.3,30.07,SSW,204,2.3,2.3,34,0.00,CLR,SCT,0.00,WeatherDisplay:10.37,2013-04-24 20:58:00,
2013-04-24 16:59:00,91.6,59.3,30.07,SE,141,2.3,2.3,34,0.00,CLR,SCT,0.00,WeatherDisplay:10.37,2013-04-24 20:59:00,
2013-04-24 17:01:00,91.3,58.2,30.07,SE,136,3.5,3.5,33,0.00,CLR,SCT,0.00,WeatherDisplay:10.37,2013-04-24 21:01:00,
2013-04-24 17:03:00,91.0,57.9,30.07,SSE,168,2.0,2.0,33,0.00,CLR,SCT,0.00,WeatherDisplay:10.37,2013-04-24 21:03:00,
2013-04-24 17:05:00,90.9,58.7,30.07,SSE,162,1.1,0.0,34,0.00,CLR,SCT,0.00,WeatherDisplay:10.37,2013-04-24 21:05:00,
2013-04-24 17:07:00,90.8,56.9,30.07,WSW,257,1.1,1.1,32,0.00,CLR,SCT,0.00,WeatherDisplay:10.37,2013-04-24 21:07:00,
2013-04-24 17:08:00,90.6,57.6,30.07,WSW,257,1.1,1.1,33,0.00,CLR,SCT,0.00,WeatherDisplay:10.37,2013-04-24 21:08:00,
2013-04-24 17:10:00,90.6,58.4,30.07,SE,129,1.0,1.0,34,0.00,CLR,SCT,0.00,WeatherDisplay:10.37,2013-04-24 21:10:00,
2013-04-24 17:12:00,90.6,58.4,30.07,East,84,3.5,3.5,34,0.00,CLR,SCT,0.00,WeatherDisplay:10.37,2013-04-24 21:12:00,
2013-04-24 17:13:00,90.6,58.4,30.07,ENE,58,1.1,0.0,34,0.00,CLR,SCT,0.00,WeatherDisplay:10.37,2013-04-24 21:13:00,
2013-04-24 17:14:00,90.6,58.4,30.07,WNW,291,1.1,0.0,34,0.00,CLR,SCT,0.00,WeatherDisplay:10.37,2013-04-24 21:14:00,
2013-04-24 17:15:00,90.7,59.3,30.07,West,275,0.0,0.0,35,0.00,CLR,SCT,0.00,WeatherDisplay:10.37,2013-04-24 21:15:00,
2013-04-24 17:17:00,90.8,57.7,30.07,SSE,151,2.3,2.3,33,0.00,CLR,SCT,0.00,WeatherDisplay:10.37,2013-04-24 21:17:00,
2013-04-24 17:18:00,91.0,58.7,30.07,SE,136,1.1,1.1,34,0.00,CLR,SCT,0.00,WeatherDisplay:10.37,2013-04-24 21:18:00,
2013-04-24 17:19:00,91.0,57.9,30.07,SW,219,3.0,3.0,33,0.00,CLR,SCT,0.00,WeatherDisplay:10.37,2013-04-24 21:19:00,
2013-04-24 17:21:00,91.2,57.2,30.07,SSE,160,2.3,2.3,32,0.00,CLR,SCT,0.00,WeatherDisplay:10.37,2013-04-24 21:21:00,
2013-04-24 17:22:00,91.2,58.1,30.07,SSW,210,2.3,0.0,33,0.00,CLR,SCT,0.00,WeatherDisplay:10.37,2013-04-24 21:22:00,
2013-04-24 17:23:00,91.2,58.1,30.07,SSW,211,0.0,0.0,33,0.00,CLR,SCT,0.00,WeatherDisplay:10.37,2013-04-24 21:23:00,
2013-04-24 17:24:00,91.1,58.0,30.07,SSW,211,1.1,0.0,33,0.00,CLR,SCT,0.00,WeatherDisplay:10.37,2013-04-24 21:24:00,
2013-04-24 17:25:00,91.2,58.9,30.07,SSW,211,0.0,0.0,34,0.00,CLR,SCT,0.00,WeatherDisplay:10.37,2013-04-24 21:25:00,
2013-04-24 17:26:00,91.2,57.2,30.07,SSW,211,1.1,0.0,32,0.00,CLR,SCT,0.00,WeatherDisplay:10.37,2013-04-24 21:26:00,
2013-04-24 17:27:00,91.3,58.2,30.08,SSE,157,1.1,1.1,33,0.00,CLR,SCT,0.00,WeatherDisplay:10.37,2013-04-24 21:27:00,
2013-04-24 17:29:00,91.2,57.2,30.07,West,262,1.1,1.1,32,0.00,CLR,SCT,0.00,WeatherDisplay:10.37,2013-04-24 21:29:00,
2013-04-24 17:30:00,91.2,58.1,30.08,West,259,1.1,0.0,33,0.00,CLR,SCT,0.00,WeatherDisplay:10.37,2013-04-24 21:30:00,
2013-04-24 17:31:00,91.1,56.3,30.08,SSE,148,2.3,2.3,31,0.00,CLR,SCT,0.00,WeatherDisplay:10.37,2013-04-24 21:31:00,
2013-04-24 17:32:00,91.0,56.2,30.08,South,191,1.1,1.1,31,0.00,CLR,SCT,0.00,WeatherDisplay:10.37,2013-04-24 21:32:00,
2013-04-24 17:34:00,90.9,56.1,30.08,West,262,0.0,0.0,31,0.00,CLR,SCT,0.00,WeatherDisplay:10.37,2013-04-24 21:34:00,
2013-04-24 17:35:00,90.8,56.0,30.08,WSW,257,1.1,1.1,31,0.00,CLR,SCT,0.00,WeatherDisplay:10.37,2013-04-24 21:35:00,
2013-04-24 17:36:00,90.9,57.8,30.08,SSW,213,1.1,0.0,33,0.00,CLR,SCT,0.00,WeatherDisplay:10.37,2013-04-24 21:36:00,
2013-04-24 17:38:00,91.0,57.9,30.08,South,191,1.1,1.1,33,0.00,CLR,SCT,0.00,WeatherDisplay:10.37,2013-04-24 21:38:00,
2013-04-24 17:39:00,91.1,58.0,30.08,SSW,198,1.1,1.1,33,0.00,CLR,SCT,0.00,WeatherDisplay:10.37,2013-04-24 21:39:00,
2013-04-24 17:40:00,91.1,57.1,30.08,South,188,0.0,0.0,32,0.00,CLR,SCT,0.00,WeatherDisplay:10.37,2013-04-24 21:40:00,
2013-04-24 17:41:00,91.3,57.3,30.07,South,188,0.0,0.0,32,0.00,CLR,SCT,0.00,WeatherDisplay:10.37,2013-04-24 21:41:00,
2013-04-24 17:43:00,91.3,57.3,30.08,South,191,0.0,0.0,32,0.00,CLR,SCT,0.00,WeatherDisplay:10.37,2013-04-24 21:43:00,
2013-04-24 17:44:00,91.4,57.4,30.08,South,190,1.1,1.1,32,0.00,CLR,SCT,0.00,WeatherDisplay:10.37,2013-04-24 21:44:00,
2013-04-24 17:45:00,91.5,57.5,30.08,SSW,199,0.0,0.0,32,0.00,CLR,SCT,0.00,WeatherDisplay:10.37,2013-04-24 21:45:00,
2013-04-24 17:47:00,91.5,55.7,30.07,South,169,1.1,1.1,30,0.00,CLR,SCT,0.00,WeatherDisplay:10.37,2013-04-24 21:47:00,
2013-04-24 17:48:00,91.5,55.7,30.08,SW,226,2.3,2.3,30,0.00,CLR,SCT,0.00,WeatherDisplay:10.37,2013-04-24 21:48:00,
2013-04-24 17:49:00,91.4,57.4,30.08,SE,145,2.3,2.3,32,0.00,CLR,SCT,0.00,WeatherDisplay:10.37,2013-04-24 21:49:00,
2013-04-24 17:50:00,91.4,56.5,30.08,SE,141,2.3,2.3,31,0.00,CLR,SCT,0.00,WeatherDisplay:10.37,2013-04-24 21:50:00,
2013-04-24 17:51:00,91.4,56.5,30.07,SSW,212,3.5,3.5,31,0.00,CLR,SCT,0.00,WeatherDisplay:10.37,2013-04-24 21:51:00,
2013-04-24 17:53:00,91.1,56.3,30.07,SSE,148,2.0,2.0,31,0.00,CLR,SCT,0.00,WeatherDisplay:10.37,2013-04-24 21:53:00,
2013-04-24 17:54:00,90.9,56.1,30.07,SSE,153,2.3,2.3,31,0.00,CLR,SCT,0.00,WeatherDisplay:10.37,2013-04-24 21:54:00,
2013-04-24 17:55:00,90.8,56.0,30.07,SSE,153,1.1,1.1,31,0.00,CLR,SCT,0.00,WeatherDisplay:10.37,2013-04-24 21:55:00,
2013-04-24 17:56:00,90.8,55.1,30.08,SSE,162,1.1,1.1,30,0.00,CLR,SCT,0.00,WeatherDisplay:10.37,2013-04-24 21:56:00,
2013-04-24 17:58:00,90.6,54.0,30.07,SSE,150,1.1,1.1,29,0.00,CLR,SCT,0.00,WeatherDisplay:10.37,2013-04-24 21:58:00,
2013-04-24 17:59:00,90.5,55.7,30.07,ESE,117,1.0,1.0,31,0.00,CLR,SCT,0.00,WeatherDisplay:10.37,2013-04-24 21:59:00,
2013-04-24 18:00:00,90.4,54.7,30.08,SSE,157,1.1,1.1,30,0.00,CLR,SCT,0.00,WeatherDisplay:10.37,2013-04-24 22:00:00,
2013-04-24 18:01:00,90.3,54.7,30.08,SSE,156,1.1,1.1,30,0.00,CLR,SCT,0.00,WeatherDisplay:10.37,2013-04-24 22:01:00,
2013-04-24 18:03:00,90.1,55.4,30.08,SSE,159,1.1,0.0,31,0.00,CLR,SCT,0.00,WeatherDisplay:10.37,2013-04-24 22:03:00,
2013-04-24 18:05:00,89.9,54.3,30.08,ENE,78,1.1,1.1,30,0.00,CLR,SCT,0.00,WeatherDisplay:10.37,2013-04-24 22:05:00,
2013-04-24 18:06:00,89.6,55.0,30.08,SSE,162,0.0,0.0,31,0.00,CLR,SCT,0.00,WeatherDisplay:10.37,2013-04-24 22:06:00,
2013-04-24 18:08:00,89.0,54.4,30.08,ENE,63,1.1,1.1,31,0.00,CLR,SCT,0.00,WeatherDisplay:10.37,2013-04-24 22:08:00,
2013-04-24 18:10:00,88.5,55.7,30.08,ENE,64,1.0,0.0,33,0.00,CLR,SCT,0.00,WeatherDisplay:10.37,2013-04-24 22:10:00,
2013-04-24 18:11:00,88.3,56.4,30.08,ENE,63,1.1,0.0,34,0.00,CLR,SCT,0.00,WeatherDisplay:10.37,2013-04-24 22:11:00,
2013-04-24 18:13:00,88.0,56.1,30.08,ENE,63,0.0,0.0,34,0.00,CLR,SCT,0.00,WeatherDisplay:10.37,2013-04-24 22:13:00,
2013-04-24 18:16:00,87.6,56.6,30.08,ENE,62,0.0,0.0,35,0.00,CLR,SCT,0.00,WeatherDisplay:10.37,2013-04-24 22:16:00,
2013-04-24 18:17:00,87.4,57.9,30.08,ENE,63,0.0,0.0,37,0.00,CLR,SCT,0.00,WeatherDisplay:10.37,2013-04-24 22:17:00,
2013-04-24 18:18:00,87.2,59.2,30.08,North,349,1.1,1.1,39,0.00,CLR,SCT,0.00,WeatherDisplay:10.37,2013-04-24 22:18:00,
2013-04-24 18:21:00,86.5,59.3,30.08,NNW,346,1.1,1.1,40,0.00,CLR,SCT,0.00,WeatherDisplay:10.37,2013-04-24 22:21:00,
2013-04-24 18:22:00,86.3,59.1,30.08,North,352,0.0,0.0,40,0.00,CLR,SCT,0.00,WeatherDisplay:10.37,2013-04-24 22:22:00,
2013-04-24 18:23:00,85.9,58.8,30.08,NNE,19,0.0,0.0,40,0.00,CLR,SCT,0.00,WeatherDisplay:10.37,2013-04-24 22:23:00,
2013-04-24 18:26:00,85.5,59.1,30.08,NNE,19,0.0,0.0,41,0.00,CLR,SCT,0.00,WeatherDisplay:10.37,2013-04-24 22:26:00,
2013-04-24 18:27:00,85.4,59.0,30.08,NNE,18,0.0,0.0,41,0.00,CLR,SCT,0.00,WeatherDisplay:10.37,2013-04-24 22:27:00,
2013-04-24 18:28:00,85.1,58.8,30.08,NNE,18,1.1,0.0,41,0.00,CLR,SCT,0.00,WeatherDisplay:10.37,2013-04-24 22:28:00,
2013-04-24 18:31:00,84.7,59.1,30.08,NE,34,1.1,0.0,42,0.00,CLR,SCT,0.00,WeatherDisplay:10.37,2013-04-24 22:31:00,
2013-04-24 18:32:00,84.6,59.0,30.08,NE,34,0.0,0.0,42,0.00,CLR,SCT,0.00,WeatherDisplay:10.37,2013-04-24 22:32:00,
2013-04-24 18:33:00,84.5,58.9,30.08,NNW,335,0.0,0.0,42,0.00,CLR,SCT,0.00,WeatherDisplay:10.37,2013-04-24 22:33:00,
2013-04-24 18:36:00,84.0,58.4,30.08,NE,41,1.1,0.0,42,0.00,CLR,SCT,0.00,WeatherDisplay:10.37,2013-04-24 22:36:00,
2013-04-24 18:37:00,84.0,58.4,30.08,NE,41,0.0,0.0,42,0.00,CLR,SCT,0.00,WeatherDisplay:10.37,2013-04-24 22:37:00,
2013-04-24 18:38:00,83.9,58.3,30.08,NE,41,0.0,0.0,42,0.00,CLR,SCT,0.00,WeatherDisplay:10.37,2013-04-24 22:38:00,
2013-04-24 18:42:00,83.6,59.4,30.08,NE,41,1.1,1.1,44,0.00,CLR,SCT,0.00,WeatherDisplay:10.37,2013-04-24 22:42:00,
2013-04-24 18:43:00,83.5,58.6,30.08,NE,41,0.0,0.0,43,0.00,CLR,SCT,0.00,WeatherDisplay:10.37,2013-04-24 22:43:00,
2013-04-24 18:44:00,83.4,59.2,30.08,NE,41,0.0,0.0,44,0.00,CLR,SCT,0.00,WeatherDisplay:10.37,2013-04-24 22:44:00,
2013-04-24 18:47:00,83.2,59.0,30.08,NE,39,0.0,0.0,44,0.00,CLR,SCT,0.00,WeatherDisplay:10.37,2013-04-24 22:47:00,
2013-04-24 18:48:00,83.2,59.0,30.08,NE,36,0.0,0.0,44,0.00,CLR,SCT,0.00,WeatherDisplay:10.37,2013-04-24 22:48:00,
2013-04-24 18:49:00,83.1,58.9,30.08,NE,36,0.0,0.0,44,0.00,CLR,SCT,0.00,WeatherDisplay:10.37,2013-04-24 22:49:00,
2013-04-24 18:52:00,82.8,59.3,30.08,NE,36,0.0,0.0,45,0.00,CLR,SCT,0.00,WeatherDisplay:10.37,2013-04-24 22:52:00,
2013-04-24 18:53:00,82.8,59.3,30.08,NE,36,0.0,0.0,45,0.00,CLR,SCT,0.00,WeatherDisplay:10.37,2013-04-24 22:53:00,
2013-04-24 18:54:00,82.7,59.2,30.08,NE,36,0.0,0.0,45,0.00,CLR,SCT,0.00,WeatherDisplay:10.37,2013-04-24 22:54:00,
2013-04-24 18:57:00,82.6,60.3,30.08,NE,36,0.0,0.0,47,0.00,CLR,SCT,0.00,WeatherDisplay:10.37,2013-04-24 22:57:00,
2013-04-24 18:58:00,82.6,59.7,30.08,NE,36,0.0,0.0,46,0.00,CLR,SCT,0.00,WeatherDisplay:10.37,2013-04-24 22:58:00,
2013-04-24 18:59:00,82.5,59.6,30.08,NE,36,0.0,0.0,46,0.00,CLR,SCT,0.00,WeatherDisplay:10.37,2013-04-24 22:59:00,
2013-04-24 19:02:00,82.3,58.8,30.08,NE,36,0.0,0.0,45,0.00,CLR,SCT,0.00,WeatherDisplay:10.37,2013-04-24 23:02:00,
2013-04-24 19:03:00,82.3,58.8,30.08,NE,36,0.0,0.0,45,0.00,CLR,SCT,0.00,WeatherDisplay:10.37,2013-04-24 23:03:00,
2013-04-24 19:04:00,82.2,58.7,30.08,NE,36,0.0,0.0,45,0.00,CLR,SCT,0.00,WeatherDisplay:10.37,2013-04-24 23:04:00,
2013-04-24 19:07:00,82.0,59.8,30.08,NE,36,0.0,0.0,47,0.00,CLR,SCT,0.00,WeatherDisplay:10.37,2013-04-24 23:07:00,
2013-04-24 19:08:00,82.0,59.8,30.08,NE,36,0.0,0.0,47,0.00,CLR,SCT,0.00,WeatherDisplay:10.37,2013-04-24 23:08:00,
2013-04-24 19:09:00,82.0,59.8,30.08,NE,36,0.0,0.0,47,0.00,CLR,SCT,0.00,WeatherDisplay:10.37,2013-04-24 23:09:00,
2013-04-24 19:13:00,81.7,59.5,30.08,NE,36,0.0,0.0,47,0.00,CLR,SCT,0.00,WeatherDisplay:10.37,2013-04-24 23:13:00,
2013-04-24 19:14:00,81.7,59.5,30.08,NE,36,0.0,0.0,47,0.00,CLR,SCT,0.00,WeatherDisplay:10.37,2013-04-24 23:14:00,
2013-04-24 19:15:00,81.6,59.4,30.08,NE,36,0.0,0.0,47,0.00,CLR,SCT,0.00,WeatherDisplay:10.37,2013-04-24 23:15:00,
2013-04-24 19:18:00,81.4,59.8,30.08,NE,36,0.0,0.0,48,0.00,CLR,SCT,0.00,WeatherDisplay:10.37,2013-04-24 23:18:00,
2013-04-24 19:19:00,81.4,59.8,30.08,NE,36,0.0,0.0,48,0.00,CLR,SCT,0.00,WeatherDisplay:10.37,2013-04-24 23:19:00,
2013-04-24 19:20:00,81.3,59.7,30.08,NE,36,0.0,0.0,48,0.00,CLR,SCT,0.00,WeatherDisplay:10.37,2013-04-24 23:20:00,
2013-04-24 19:23:00,81.1,60.1,30.08,NE,36,0.0,0.0,49,0.00,CLR,SCT,0.00,WeatherDisplay:10.37,2013-04-24 23:23:00,
2013-04-24 19:24:00,81.1,60.1,30.08,NE,36,0.0,0.0,49,0.00,CLR,SCT,0.00,WeatherDisplay:10.37,2013-04-24 23:24:00,
2013-04-24 19:25:00,81.0,60.0,30.08,NE,36,0.0,0.0,49,0.00,CLR,SCT,0.00,WeatherDisplay:10.37,2013-04-24 23:25:00,
2013-04-24 19:28:00,80.8,60.4,30.08,NE,36,0.0,0.0,50,0.00,CLR,SCT,0.00,WeatherDisplay:10.37,2013-04-24 23:28:00,
2013-04-24 19:29:00,80.7,60.3,30.08,NE,36,0.0,0.0,50,0.00,CLR,SCT,0.00,WeatherDisplay:10.37,2013-04-24 23:29:00,
2013-04-24 19:30:00,80.7,60.3,30.08,NE,36,0.0,0.0,50,0.00,CLR,SCT,0.00,WeatherDisplay:10.37,2013-04-24 23:30:00,
2013-04-24 19:33:00,80.4,59.5,30.08,NE,36,0.0,0.0,49,0.00,CLR,SCT,0.00,WeatherDisplay:10.37,2013-04-24 23:33:00,
2013-04-24 19:34:00,80.3,59.4,30.09,NE,36,0.0,0.0,49,0.00,CLR,SCT,0.00,WeatherDisplay:10.37,2013-04-24 23:34:00,
2013-04-24 19:35:00,80.2,59.9,30.09,NE,36,0.0,0.0,50,0.00,CLR,SCT,0.00,WeatherDisplay:10.37,2013-04-24 23:35:00,
2013-04-24 19:36:00,80.2,59.9,30.09,NE,36,0.0,0.0,50,0.00,CLR,SCT,0.00,WeatherDisplay:10.37,2013-04-24 23:36:00,
2013-04-24 19:38:00,80.0,60.2,30.09,NE,36,0.0,0.0,51,0.00,CLR,SCT,0.00,WeatherDisplay:10.37,2013-04-24 23:38:00,
2013-04-24 19:39:00,79.9,60.2,30.09,NE,36,0.0,0.0,51,0.00,CLR,SCT,0.00,WeatherDisplay:10.37,2013-04-24 23:39:00,
2013-04-24 19:40:00,79.8,60.1,30.09,NE,36,0.0,0.0,51,0.00,CLR,SCT,0.00,WeatherDisplay:10.37,2013-04-24 23:40:00,
2013-04-24 19:41:00,79.8,60.1,30.09,NE,36,0.0,0.0,51,0.00,CLR,SCT,0.00,WeatherDisplay:10.37,2013-04-24 23:41:00,
2013-04-24 19:43:00,79.7,60.5,30.09,NE,36,0.0,0.0,52,0.00,CLR,SCT,0.00,WeatherDisplay:10.37,2013-04-24 23:43:00,
2013-04-24 19:44:00,79.6,60.4,30.09,NE,36,0.0,0.0,52,0.00,CLR,SCT,0.00,WeatherDisplay:10.37,2013-04-24 23:44:00,
2013-04-24 19:45:00,79.6,60.4,30.09,NE,36,0.0,0.0,52,0.00,CLR,SCT,0.00,WeatherDisplay:10.37,2013-04-24 23:45:00,
2013-04-24 19:46:00,79.4,60.2,30.09,NE,36,0.0,0.0,52,0.00,CLR,SCT,0.00,WeatherDisplay:10.37,2013-04-24 23:46:00,
2013-04-24 19:48:00,79.3,60.7,30.09,NE,36,0.0,0.0,53,0.00,CLR,SCT,0.00,WeatherDisplay:10.37,2013-04-24 23:48:00,
2013-04-24 19:49:00,79.2,60.6,30.09,NE,36,0.0,0.0,53,0.00,CLR,SCT,0.00,WeatherDisplay:10.37,2013-04-24 23:49:00,
2013-04-24 19:50:00,79.2,60.6,30.09,NE,36,0.0,0.0,53,0.00,CLR,SCT,0.00,WeatherDisplay:10.37,2013-04-24 23:50:00,
2013-04-24 19:51:00,79.1,60.5,30.09,NE,36,0.0,0.0,53,0.00,CLR,SCT,0.00,WeatherDisplay:10.37,2013-04-24 23:51:00,
2013-04-24 19:53:00,78.9,60.8,30.09,NE,36,0.0,0.0,54,0.00,CLR,SCT,0.00,WeatherDisplay:10.37,2013-04-24 23:53:00,
2013-04-24 19:54:00,78.8,60.7,30.09,NE,36,0.0,0.0,54,0.00,CLR,SCT,0.00,WeatherDisplay:10.37,2013-04-24 23:54:00,
2013-04-24 19:55:00,78.8,60.7,30.09,NE,36,0.0,0.0,54,0.00,CLR,SCT,0.00,WeatherDisplay:10.37,2013-04-24 23:55:00,
2013-04-24 19:56:00,78.6,60.6,30.09,NE,36,0.0,0.0,54,0.00,CLR,SCT,0.00,WeatherDisplay:10.37,2013-04-24 23:56:00,
2013-04-24 19:57:00,78.6,60.6,30.09,NE,36,0.0,0.0,54,0.00,CLR,SCT,0.00,WeatherDisplay:10.37,2013-04-24 23:57:00,
2013-04-24 19:59:00,78.4,60.9,30.09,NE,36,0.0,0.0,55,0.00,CLR,SCT,0.00,WeatherDisplay:10.37,2013-04-24 23:59:00,
2013-04-24 20:00:00,78.3,60.8,30.09,NE,36,0.0,0.0,55,0.00,CLR,SCT,0.00,WeatherDisplay:10.37,2013-04-25 00:00:00,
2013-04-24 20:01:00,78.2,60.7,30.09,NE,36,0.0,0.0,55,0.00,CLR,SCT,0.00,WeatherDisplay:10.37,2013-04-25 00:01:00,
2013-04-24 20:02:00,78.1,60.6,30.09,NE,36,0.0,0.0,55,0.00,CLR,SCT,0.00,WeatherDisplay:10.37,2013-04-25 00:02:00,
2013-04-24 20:04:00,77.9,60.4,30.09,NE,36,0.0,0.0,55,0.00,CLR,SCT,0.00,WeatherDisplay:10.37,2013-04-25 00:04:00,
2013-04-24 20:05:00,77.9,60.4,30.09,NE,36,0.0,0.0,55,0.00,CLR,SCT,0.00,WeatherDisplay:10.37,2013-04-25 00:05:00,
2013-04-24 20:07:00,77.7,60.2,30.09,NE,36,0.0,0.0,55,0.00,CLR,SCT,0.00,WeatherDisplay:10.37,2013-04-25 00:07:00,
2013-04-24 20:10:00,77.5,60.1,30.09,NE,36,0.0,0.0,55,0.00,CLR,SCT,0.00,WeatherDisplay:10.37,2013-04-25 00:10:00,
2013-04-24 20:11:00,77.4,60.0,30.09,NE,36,0.0,0.0,55,0.00,CLR,SCT,0.00,WeatherDisplay:10.37,2013-04-25 00:11:00,
2013-04-24 20:12:00,77.4,60.5,30.10,NE,36,0.0,0.0,56,0.00,CLR,SCT,0.00,WeatherDisplay:10.37,2013-04-25 00:12:00,
2013-04-24 20:15:00,77.2,60.3,30.09,NE,36,0.0,0.0,56,0.00,CLR,SCT,0.00,WeatherDisplay:10.37,2013-04-25 00:15:00,
2013-04-24 20:16:00,77.2,60.8,30.09,NE,36,0.0,0.0,57,0.00,CLR,SCT,0.00,WeatherDisplay:10.37,2013-04-25 00:16:00,
2013-04-24 20:17:00,77.1,60.7,30.09,NE,36,0.0,0.0,57,0.00,CLR,SCT,0.00,WeatherDisplay:10.37,2013-04-25 00:17:00,
2013-04-24 20:18:00,77.2,61.8,30.09,NE,36,0.0,0.0,59,0.00,CLR,SCT,0.00,WeatherDisplay:10.37,2013-04-25 00:18:00,
2013-04-24 20:20:00,77.0,61.6,30.10,NE,36,0.0,0.0,59,0.00,CLR,SCT,0.00,WeatherDisplay:10.37,2013-04-25 00:20:00,
2013-04-24 20:21:00,76.9,62.0,30.10,NE,36,0.0,0.0,60,0.00,CLR,SCT,0.00,WeatherDisplay:10.37,2013-04-25 00:21:00,
2013-04-24 20:22:00,76.8,62.3,30.10,NE,36,0.0,0.0,61,0.00,CLR,SCT,0.00,WeatherDisplay:10.37,2013-04-25 00:22:00,
2013-04-24 20:23:00,76.8,62.3,30.10,NE,36,0.0,0.0,61,0.00,CLR,SCT,0.00,WeatherDisplay:10.37,2013-04-25 00:23:00,
2013-04-24 20:25:00,76.5,61.6,30.10,NE,36,0.0,0.0,60,0.00,CLR,SCT,0.00,WeatherDisplay:10.37,2013-04-25 00:25:00,
2013-04-24 20:26:00,76.5,61.6,30.10,NE,36,0.0,0.0,60,0.00,CLR,SCT,0.00,WeatherDisplay:10.37,2013-04-25 00:26:00,
2013-04-24 20:27:00,76.3,61.4,30.10,NE,36,0.0,0.0,60,0.00,CLR,SCT,0.00,WeatherDisplay:10.37,2013-04-25 00:27:00,
2013-04-24 20:28:00,76.2,61.3,30.10,NE,36,0.0,0.0,60,0.00,CLR,SCT,0.00,WeatherDisplay:10.37,2013-04-25 00:28:00,
2013-04-24 20:31:00,75.9,61.0,30.10,NE,36,0.0,0.0,60,0.00,CLR,SCT,0.00,WeatherDisplay:10.37,2013-04-25 00:31:00,
2013-04-24 20:33:00,75.7,60.4,30.11,NE,36,0.0,0.0,59,0.00,CLR,SCT,0.00,WeatherDisplay:10.37,2013-04-25 00:33:00,
2013-04-24 20:36:00,75.4,60.5,30.11,NE,36,0.0,0.0,60,0.00,CLR,SCT,0.00,WeatherDisplay:10.37,2013-04-25 00:36:00,
2013-04-24 20:38:00,75.3,60.9,30.11,NE,50,0.0,0.0,61,0.00,CLR,SCT,0.00,WeatherDisplay:10.37,2013-04-25 00:38:00,
2013-04-24 20:41:00,75.3,61.4,30.11,East,84,1.0,0.0,62,0.00,CLR,SCT,0.00,WeatherDisplay:10.37,2013-04-25 00:41:00,
2013-04-24 20:43:00,75.4,62.4,30.11,SSW,200,0.0,0.0,64,0.00,CLR,SCT,0.00,WeatherDisplay:10.37,2013-04-25 00:43:00,
2013-04-24 20:44:00,75.4,62.4,30.11,SSW,208,0.0,0.3,64,0.00,CLR,SCT,0.00,WeatherDisplay:10.37,2013-04-25 00:44:00,
2013-04-24 20:46:00,75.7,63.5,30.11,NNE,18,3.5,3.5,66,0.00,CLR,SCT,0.00,WeatherDisplay:10.37,2013-04-25 00:46:00,
2013-04-24 20:47:00,75.9,63.7,30.11,East,98,3.5,3.5,66,0.00,CLR,SCT,0.00,WeatherDisplay:10.37,2013-04-25 00:47:00,
2013-04-24 20:48:00,76.1,63.9,30.11,SW,231,1.1,1.1,66,0.00,CLR,SCT,0.00,WeatherDisplay:10.37,2013-04-25 00:48:00,
2013-04-24 20:49:00,76.2,64.0,30.11,SW,231,1.1,1.1,66,0.00,CLR,SCT,0.00,WeatherDisplay:10.37,2013-04-25 00:49:00,
2013-04-24 20:51:00,76.4,64.2,30.11,WNW,293,2.3,2.3,66,0.00,CLR,SCT,0.00,WeatherDisplay:10.37,2013-04-25 00:51:00,
2013-04-24 20:52:00,76.4,64.2,30.12,SSW,204,2.3,2.3,66,0.00,CLR,SCT,0.00,WeatherDisplay:10.37,2013-04-25 00:52:00,
2013-04-24 20:54:00,76.5,63.9,30.11,East,98,5.0,5.0,65,0.00,CLR,SCT,0.00,WeatherDisplay:10.37,2013-04-25 00:54:00,
2013-04-24 20:56:00,76.6,64.0,30.12,SSW,201,3.5,3.5,65,0.00,CLR,SCT,0.00,WeatherDisplay:10.37,2013-04-25 00:56:00,
2013-04-24 20:57:00,76.6,64.0,30.12,ESE,118,2.3,2.3,65,0.00,CLR,SCT,0.00,WeatherDisplay:10.37,2013-04-25 00:57:00,
2013-04-24 20:59:00,76.7,64.0,30.12,SSW,210,4.6,4.6,65,0.00,CLR,SCT,0.00,WeatherDisplay:10.37,2013-04-25 00:59:00,
2013-04-24 21:01:00,76.6,64.0,30.12,NE,45,1.1,1.1,65,0.00,CLR,SCT,0.00,WeatherDisplay:10.37,2013-04-25 01:01:00,
2013-04-24 21:02:00,76.6,64.0,30.12,South,190,3.5,3.5,65,0.00,CLR,SCT,0.00,WeatherDisplay:10.37,2013-04-25 01:02:00,
2013-04-24 21:04:00,76.6,64.0,30.12,NE,56,3.5,3.5,65,0.00,CLR,SCT,0.00,WeatherDisplay:10.37,2013-04-25 01:04:00,
2013-04-24 21:07:00,76.6,64.0,30.12,SSW,212,3.5,3.5,65,0.00,CLR,SCT,0.00,WeatherDisplay:10.37,2013-04-25 01:07:00,
2013-04-24 21:09:00,76.6,64.0,30.12,SSE,164,2.3,2.3,65,0.00,CLR,SCT,0.00,WeatherDisplay:10.37,2013-04-25 01:09:00,
2013-04-24 21:10:00,76.5,63.9,30.12,East,100,1.0,5.0,65,0.00,CLR,SCT,0.00,WeatherDisplay:10.37,2013-04-25 01:10:00,
2013-04-24 21:12:00,76.4,64.2,30.12,SSW,211,3.5,3.5,66,0.00,CLR,SCT,0.00,WeatherDisplay:10.37,2013-04-25 01:12:00,
2013-04-24 21:13:00,76.4,64.2,30.12,SE,134,2.3,2.3,66,0.00,CLR,SCT,0.00,WeatherDisplay:10.37,2013-04-25 01:13:00,
2013-04-24 21:14:00,76.4,64.2,30.12,SSE,166,3.5,3.5,66,0.00,CLR,SCT,0.00,WeatherDisplay:10.37,2013-04-25 01:14:00,
2013-04-24 21:15:00,76.3,64.1,30.12,NE,40,3.5,3.5,66,0.00,CLR,SCT,0.00,WeatherDisplay:10.37,2013-04-25 01:15:00,
2013-04-24 21:17:00,76.2,64.0,30.13,NE,53,2.3,2.3,66,0.00,CLR,SCT,0.00,WeatherDisplay:10.37,2013-04-25 01:17:00,
2013-04-24 21:18:00,76.2,64.0,30.12,SW,215,3.5,3.5,66,0.00,CLR,SCT,0.00,WeatherDisplay:10.37,2013-04-25 01:18:00,
2013-04-24 21:19:00,76.1,63.9,30.13,North,5,1.1,1.1,66,0.00,CLR,SCT,0.00,WeatherDisplay:10.37,2013-04-25 01:19:00,
2013-04-24 21:20:00,76.1,63.9,30.13,WSW,248,2.3,2.3,66,0.00,CLR,SCT,0.00,WeatherDisplay:10.37,2013-04-25 01:20:00,
2013-04-24 21:22:00,76.1,63.9,30.13,East,101,2.3,2.3,66,0.00,CLR,SCT,0.00,WeatherDisplay:10.37,2013-04-25 01:22:00,
2013-04-24 21:23:00,76.0,64.2,30.13,NE,53,3.5,3.5,67,0.00,CLR,SCT,0.00,WeatherDisplay:10.37,2013-04-25 01:23:00,
2013-04-24 21:25:00,76.0,64.2,30.13,NE,56,2.3,2.3,67,0.00,CLR,SCT,0.00,WeatherDisplay:10.37,2013-04-25 01:25:00,
2013-04-24 21:27:00,75.9,64.2,30.14,NE,36,3.5,3.5,67,0.00,CLR,SCT,0.00,WeatherDisplay:10.37,2013-04-25 01:27:00,
2013-04-24 21:28:00,75.9,64.2,30.14,SW,232,3.5,3.5,67,0.00,CLR,SCT,0.00,WeatherDisplay:10.37,2013-04-25 01:28:00,
2013-04-24 21:30:00,75.8,64.1,30.14,ESE,121,1.0,4.0,67,0.00,CLR,SCT,0.00,WeatherDisplay:10.37,2013-04-25 01:30:00,
2013-04-24 21:32:00,75.7,64.0,30.14,East,100,1.1,1.1,67,0.00,CLR,SCT,0.00,WeatherDisplay:10.37,2013-04-25 01:32:00,
2013-04-24 21:33:00,75.6,63.9,30.14,South,170,2.3,2.3,67,0.00,CLR,SCT,0.00,WeatherDisplay:10.37,2013-04-25 01:33:00,
2013-04-24 21:34:00,75.6,63.9,30.14,SSE,162,2.3,2.3,67,0.00,CLR,SCT,0.00,WeatherDisplay:10.37,2013-04-25 01:34:00,
2013-04-24 21:35:00,75.6,63.9,30.14,South,188,2.3,2.3,67,0.00,CLR,SCT,0.00,WeatherDisplay:10.37,2013-04-25 01:35:00,
2013-04-24 21:37:00,75.5,64.2,30.14,SSW,204,2.3,2.3,68,0.00,CLR,SCT,0.00,WeatherDisplay:10.37,2013-04-25 01:37:00,
2013-04-24 21:39:00,75.4,64.1,30.14,SSE,167,1.1,1.1,68,0.00,CLR,SCT,0.00,WeatherDisplay:10.37,2013-04-25 01:39:00,
2013-04-24 21:40:00,75.3,64.0,30.14,SE,136,3.5,3.5,68,0.00,CLR,SCT,0.00,WeatherDisplay:10.37,2013-04-25 01:40:00,
2013-04-24 21:41:00,75.3,64.0,30.14,SSE,154,2.3,2.3,68,0.00,CLR,SCT,0.00,WeatherDisplay:10.37,2013-04-25 01:41:00,
2013-04-24 21:42:00,75.2,63.9,30.15,South,177,3.5,3.5,68,0.00,CLR,SCT,0.00,WeatherDisplay:10.37,2013-04-25 01:42:00,
2013-04-24 21:44:00,75.1,63.8,30.15,SSW,198,3.5,3.5,68,0.00,CLR,SCT,0.00,WeatherDisplay:10.37,2013-04-25 01:44:00,
2013-04-24 21:45:00,75.1,63.8,30.15,SSW,198,3.5,3.5,68,0.00,CLR,SCT,0.00,WeatherDisplay:10.37,2013-04-25 01:45:00,
2013-04-24 21:46:00,75.1,63.8,30.15,South,177,3.5,3.5,68,0.00,CLR,SCT,0.00,WeatherDisplay:10.37,2013-04-25 01:46:00,
2013-04-24 21:47:00,75.0,64.1,30.15,East,82,1.1,1.1,69,0.00,CLR,SCT,0.00,WeatherDisplay:10.37,2013-04-25 01:47:00,
2013-04-24 21:50:00,74.9,63.6,30.15,ENE,61,4.6,4.6,68,0.00,CLR,SCT,0.00,WeatherDisplay:10.37,2013-04-25 01:50:00,
2013-04-24 21:51:00,74.8,63.9,30.15,NE,49,1.1,1.1,69,0.00,CLR,SCT,0.00,WeatherDisplay:10.37,2013-04-25 01:51:00,
2013-04-24 21:52:00,74.8,63.9,30.15,SW,222,1.1,1.1,69,0.00,CLR,SCT,0.00,WeatherDisplay:10.37,2013-04-25 01:52:00,
2013-04-24 21:55:00,74.7,63.9,30.15,SE,144,2.3,2.3,69,0.00,CLR,SCT,0.00,WeatherDisplay:10.37,2013-04-25 01:55:00,
2013-04-24 21:56:00,74.6,63.8,30.15,WSW,256,1.1,1.1,69,0.00,CLR,SCT,0.00,WeatherDisplay:10.37,2013-04-25 01:56:00,
2013-04-24 21:58:00,74.6,63.8,30.15,SE,136,2.3,2.3,69,0.00,CLR,SCT,0.00,WeatherDisplay:10.37,2013-04-25 01:58:00,
2013-04-24 22:00:00,74.5,63.7,30.15,SW,218,2.3,2.3,69,0.00,CLR,SCT,0.00,WeatherDisplay:10.37,2013-04-25 02:00:00,
2013-04-24 22:01:00,74.5,63.7,30.15,SSW,204,2.3,0.0,69,0.00,CLR,SCT,0.00,WeatherDisplay:10.37,2013-04-25 02:01:00,
2013-04-24 22:03:00,74.4,63.6,30.15,SSW,198,1.1,1.1,69,0.00,CLR,SCT,0.00,WeatherDisplay:10.37,2013-04-25 02:03:00,
2013-04-24 22:05:00,74.2,63.4,30.15,SSW,194,2.3,2.3,69,0.00,CLR,SCT,0.00,WeatherDisplay:10.37,2013-04-25 02:05:00,
2013-04-24 22:06:00,74.2,63.4,30.15,SSW,194,1.1,1.1,69,0.00,CLR,SCT,0.00,WeatherDisplay:10.37,2013-04-25 02:06:00,
2013-04-24 22:07:00,74.2,63.8,30.15,South,190,1.1,0.0,70,0.00,CLR,SCT,0.00,WeatherDisplay:10.37,2013-04-25 02:07:00,
2013-04-24 22:08:00,74.1,63.7,30.16,South,190,1.1,0.0,70,0.00,CLR,SCT,0.00,WeatherDisplay:10.37,2013-04-25 02:08:00,
2013-04-24 22:11:00,74.0,63.6,30.16,SE,142,1.1,1.1,70,0.00,CLR,SCT,0.00,WeatherDisplay:10.37,2013-04-25 02:11:00,
2013-04-24 22:12:00,73.9,63.5,30.16,SE,133,2.3,2.3,70,0.00,CLR,SCT,0.00,WeatherDisplay:10.37,2013-04-25 02:12:00,
2013-04-24 22:13:00,73.9,63.5,30.16,SE,132,1.1,0.0,70,0.00,CLR,SCT,0.00,WeatherDisplay:10.37,2013-04-25 02:13:00,
2013-04-24 22:16:00,73.8,63.4,30.16,SE,136,1.1,0.0,70,0.00,CLR,SCT,0.00,WeatherDisplay:10.37,2013-04-25 02:16:00,
2013-04-24 22:17:00,73.7,63.7,30.16,SE,136,0.0,0.0,71,0.00,CLR,SCT,0.00,WeatherDisplay:10.37,2013-04-25 02:17:00,
2013-04-24 22:18:00,73.7,63.7,30.16,SE,135,0.0,0.0,71,0.00,CLR,SCT,0.00,WeatherDisplay:10.37,2013-04-25 02:18:00,
2013-04-24 22:21:00,73.6,63.6,30.16,South,173,0.0,0.0,71,0.00,CLR,SCT,0.00,WeatherDisplay:10.37,2013-04-25 02:21:00,
2013-04-24 22:22:00,73.5,63.5,30.16,SSE,166,1.1,0.0,71,0.00,CLR,SCT,0.00,WeatherDisplay:10.37,2013-04-25 02:22:00,
2013-04-24 22:24:00,73.4,63.4,30.16,SE,146,0.0,0.0,71,0.00,CLR,SCT,0.00,WeatherDisplay:10.37,2013-04-25 02:24:00,
2013-04-24 22:26:00,73.3,63.3,30.16,East,89,1.1,0.0,71,0.00,CLR,SCT,0.00,WeatherDisplay:10.37,2013-04-25 02:26:00,
2013-04-24 22:27:00,73.3,63.3,30.16,East,91,1.1,1.1,71,0.00,CLR,SCT,0.00,WeatherDisplay:10.37,2013-04-25 02:27:00,
2013-04-24 22:28:00,73.2,63.2,30.16,East,92,0.0,0.0,71,0.00,CLR,SCT,0.00,WeatherDisplay:10.37,2013-04-25 02:28:00,
2013-04-24 22:29:00,73.2,63.6,30.16,ESE,105,0.0,0.0,72,0.00,CLR,SCT,0.00,WeatherDisplay:10.37,2013-04-25 02:29:00,
2013-04-24 22:31:00,73.1,63.5,30.16,South,191,0.0,0.0,72,0.00,CLR,SCT,0.00,WeatherDisplay:10.37,2013-04-25 02:31:00,
2013-04-24 22:32:00,72.9,63.3,30.16,SSW,192,0.0,0.0,72,0.00,CLR,SCT,0.00,WeatherDisplay:10.37,2013-04-25 02:32:00,
2013-04-24 22:33:00,72.9,63.3,30.16,SSW,192,0.0,0.0,72,0.00,CLR,SCT,0.00,WeatherDisplay:10.37,2013-04-25 02:33:00,
2013-04-24 22:34:00,72.9,63.3,30.16,South,190,0.0,0.0,72,0.00,CLR,SCT,0.00,WeatherDisplay:10.37,2013-04-25 02:34:00,
2013-04-24 22:36:00,72.7,63.1,30.16,South,191,0.0,0.0,72,0.00,CLR,SCT,0.00,WeatherDisplay:10.37,2013-04-25 02:36:00,
2013-04-24 22:37:00,72.7,63.1,30.16,South,191,0.0,0.0,72,0.00,CLR,SCT,0.00,WeatherDisplay:10.37,2013-04-25 02:37:00,
2013-04-24 22:38:00,72.6,63.4,30.16,SSW,192,0.0,0.0,73,0.00,CLR,SCT,0.00,WeatherDisplay:10.37,2013-04-25 02:38:00,
2013-04-24 22:39:00,72.6,63.4,30.16,South,191,0.0,0.0,73,0.00,CLR,SCT,0.00,WeatherDisplay:10.37,2013-04-25 02:39:00,
2013-04-24 22:42:00,72.3,63.2,30.16,South,191,0.0,0.0,73,0.00,CLR,SCT,0.00,WeatherDisplay:10.37,2013-04-25 02:42:00,
2013-04-24 22:43:00,72.2,63.4,30.16,South,191,0.0,0.0,74,0.00,CLR,SCT,0.00,WeatherDisplay:10.37,2013-04-25 02:43:00,
2013-04-24 22:44:00,72.1,63.4,30.16,South,191,0.0,0.0,74,0.00,CLR,SCT,0.00,WeatherDisplay:10.37,2013-04-25 02:44:00,
2013-04-24 22:47:00,71.9,63.2,30.16,SSW,192,0.0,0.0,74,0.00,CLR,SCT,0.00,WeatherDisplay:10.37,2013-04-25 02:47:00,
2013-04-24 22:48:00,71.8,63.1,30.16,South,179,0.0,0.0,74,0.00,CLR,SCT,0.00,WeatherDisplay:10.37,2013-04-25 02:48:00,
2013-04-24 22:49:00,71.8,63.4,30.16,South,179,0.0,0.0,75,0.00,CLR,SCT,0.00,WeatherDisplay:10.37,2013-04-25 02:49:00,
2013-04-24 22:52:00,71.7,63.4,30.16,SE,142,0.0,0.0,75,0.00,CLR,SCT,0.00,WeatherDisplay:10.37,2013-04-25 02:52:00,
2013-04-24 22:53:00,71.7,63.4,30.16,SE,142,0.0,0.0,75,0.00,CLR,SCT,0.00,WeatherDisplay:10.37,2013-04-25 02:53:00,
2013-04-24 22:54:00,71.6,63.3,30.16,SE,146,0.0,0.0,75,0.00,CLR,SCT,0.00,WeatherDisplay:10.37,2013-04-25 02:54:00,
2013-04-24 22:55:00,71.6,63.3,30.16,SE,145,1.1,0.0,75,0.00,CLR,SCT,0.00,WeatherDisplay:10.37,2013-04-25 02:55:00,
2013-04-24 22:57:00,71.5,63.2,30.16,SE,145,0.0,0.0,75,0.00,CLR,SCT,0.00,WeatherDisplay:10.37,2013-04-25 02:57:00,
2013-04-24 22:58:00,71.4,63.1,30.16,SE,145,1.1,0.0,75,0.00,CLR,SCT,0.00,WeatherDisplay:10.37,2013-04-25 02:58:00,
2013-04-24 23:00:00,71.4,63.4,30.16,SSE,148,0.0,1.0,76,0.00,CLR,SCT,0.00,WeatherDisplay:10.37,2013-04-25 03:00:00,
2013-04-24 23:02:00,71.2,63.2,30.16,SE,146,0.0,0.0,76,0.00,CLR,SCT,0.00,WeatherDisplay:10.37,2013-04-25 03:02:00,
2013-04-24 23:03:00,71.1,63.1,30.16,SE,146,1.1,1.1,76,0.00,CLR,SCT,0.00,WeatherDisplay:10.37,2013-04-25 03:03:00,
2013-04-24 23:05:00,71.0,63.1,30.16,SSE,150,2.3,2.3,76,0.00,CLR,SCT,0.00,WeatherDisplay:10.37,2013-04-25 03:05:00,
2013-04-24 23:07:00,70.9,63.3,30.16,SE,146,1.0,1.0,77,0.00,CLR,SCT,0.00,WeatherDisplay:10.37,2013-04-25 03:07:00,
2013-04-24 23:08:00,70.8,63.2,30.16,SSE,150,2.3,2.3,77,0.00,CLR,SCT,0.00,WeatherDisplay:10.37,2013-04-25 03:08:00,
2013-04-24 23:10:00,70.8,63.3,30.16,SSE,150,0.0,2.0,77,0.00,CLR,SCT,0.00,WeatherDisplay:10.37,2013-04-25 03:10:00,
2013-04-24 23:11:00,70.8,63.2,30.16,SSE,163,2.3,2.3,77,0.00,CLR,SCT,0.00,WeatherDisplay:10.37,2013-04-25 03:11:00,
2013-04-24 23:12:00,70.7,63.1,30.16,SE,142,1.1,1.1,77,0.00,CLR,SCT,0.00,WeatherDisplay:10.37,2013-04-25 03:12:00,
2013-04-24 23:13:00,70.8,63.2,30.16,SE,142,1.1,1.1,77,0.00,CLR,SCT,0.00,WeatherDisplay:10.37,2013-04-25 03:13:00,
2013-04-24 23:14:00,70.8,63.2,30.16,SE,142,1.1,1.1,77,0.00,CLR,SCT,0.00,WeatherDisplay:10.37,2013-04-25 03:14:00,
2013-04-24 23:15:00,70.7,63.1,30.16,SE,145,1.0,1.0,77,0.00,CLR,SCT,0.00,WeatherDisplay:10.37,2013-04-25 03:15:00,
2013-04-24 23:16:00,70.7,63.1,30.16,SSW,212,1.1,1.1,77,0.00,CLR,SCT,0.00,WeatherDisplay:10.37,2013-04-25 03:16:00,
2013-04-24 23:18:00,70.7,63.1,30.15,SSE,151,1.1,0.0,77,0.00,CLR,SCT,0.00,WeatherDisplay:10.37,2013-04-25 03:18:00,
2013-04-24 23:19:00,70.7,63.1,30.16,SSE,159,0.0,0.0,77,0.00,CLR,SCT,0.00,WeatherDisplay:10.37,2013-04-25 03:19:00,
2013-04-24 23:20:00,70.7,63.1,30.16,SSE,159,0.0,0.0,77,0.00,CLR,SCT,0.00,WeatherDisplay:10.37,2013-04-25 03:20:00,
2013-04-24 23:21:00,70.6,63.0,30.16,SSW,194,0.0,0.0,77,0.00,CLR,SCT,0.00,WeatherDisplay:10.37,2013-04-25 03:21:00,
2013-04-24 23:23:00,70.6,63.0,30.15,SSE,155,0.0,0.1,77,0.00,CLR,SCT,0.00,WeatherDisplay:10.37,2013-04-25 03:23:00,
2013-04-24 23:24:00,70.5,62.9,30.15,South,183,1.1,1.1,77,0.00,CLR,SCT,0.00,WeatherDisplay:10.37,2013-04-25 03:24:00,
2013-04-24 23:26:00,70.5,62.9,30.15,SW,217,1.1,0.0,77,0.00,CLR,SCT,0.00,WeatherDisplay:10.37,2013-04-25 03:26:00,
2013-04-24 23:27:00,70.4,62.8,30.15,SSW,204,1.1,0.0,77,0.00,CLR,SCT,0.00,WeatherDisplay:10.37,2013-04-25 03:27:00,
2013-04-24 23:28:00,70.4,62.8,30.15,South,174,0.0,0.0,77,0.00,CLR,SCT,0.00,WeatherDisplay:10.37,2013-04-25 03:28:00,
2013-04-24 23:29:00,70.3,62.7,30.15,SSW,195,0.0,0.0,77,0.00,CLR,SCT,0.00,WeatherDisplay:10.37,2013-04-25 03:29:00,
2013-04-24 23:31:00,70.3,62.7,30.15,SE,125,1.1,0.0,77,0.00,CLR,SCT,0.00,WeatherDisplay:10.37,2013-04-25 03:31:00,
2013-04-24 23:33:00,70.3,62.7,30.15,SE,142,1.1,1.1,77,0.00,CLR,SCT,0.00,WeatherDisplay:10.37,2013-04-25 03:33:00,
2013-04-24 23:34:00,70.2,62.6,30.15,SE,146,1.1,1.1,77,0.00,CLR,SCT,0.00,WeatherDisplay:10.37,2013-04-25 03:34:00,
2013-04-24 23:36:00,70.2,62.6,30.15,SE,146,0.0,0.0,77,0.00,CLR,SCT,0.00,WeatherDisplay:10.37,2013-04-25 03:36:00,
2013-04-24 23:38:00,70.1,62.9,30.15,WSW,248,2.3,2.3,78,0.00,CLR,SCT,0.00,WeatherDisplay:10.37,2013-04-25 03:38:00,
2013-04-24 23:40:00,70.1,62.9,30.15,SSW,194,1.1,0.0,78,0.00,CLR,SCT,0.00,WeatherDisplay:10.37,2013-04-25 03:40:00,
2013-04-24 23:41:00,70.1,62.9,30.15,SSW,194,1.1,1.1,78,0.00,CLR,SCT,0.00,WeatherDisplay:10.37,2013-04-25 03:41:00,
2013-04-24 23:43:00,70.0,62.8,30.15,SSE,153,0.0,0.0,78,0.00,CLR,SCT,0.00,WeatherDisplay:10.37,2013-04-25 03:43:00,
2013-04-24 23:45:00,70.0,62.8,30.15,SE,136,2.3,2.3,78,0.00,CLR,SCT,0.00,WeatherDisplay:10.37,2013-04-25 03:45:00,
2013-04-24 23:46:00,69.9,62.7,30.15,SSE,154,2.3,2.3,78,0.00,CLR,SCT,0.00,WeatherDisplay:10.37,2013-04-25 03:46:00,
2013-04-24 23:48:00,69.9,62.7,30.15,SSW,201,1.1,1.1,78,0.00,CLR,SCT,0.00,WeatherDisplay:10.37,2013-04-25 03:48:00,
2013-04-24 23:50:00,69.9,62.7,30.15,SE,138,2.3,2.3,78,0.00,CLR,SCT,0.00,WeatherDisplay:10.37,2013-04-25 03:50:00,
2013-04-24 23:52:00,69.9,62.7,30.15,SSE,159,0.0,0.0,78,0.00,CLR,SCT,0.00,WeatherDisplay:10.37,2013-04-25 03:52:00,
2013-04-24 23:53:00,69.9,62.7,30.15,SSE,168,1.1,1.1,78,0.00,CLR,SCT,0.00,WeatherDisplay:10.37,2013-04-25 03:53:00,
2013-04-24 23:55:00,69.9,62.7,30.15,SSE,166,3.5,3.5,78,0.00,CLR,SCT,0.00,WeatherDisplay:10.37,2013-04-25 03:55:00,
2013-04-24 23:56:00,69.9,62.7,30.15,SE,126,2.3,2.3,78,0.00,CLR,SCT,0.00,WeatherDisplay:10.37,2013-04-25 03:56:00,
2013-04-24 23:57:00,69.9,62.7,30.15,SE,145,2.3,2.3,78,0.00,CLR,SCT,0.00,WeatherDisplay:10.37,2013-04-25 03:57:00,
2013-04-24 23:58:00,69.8,62.6,30.15,SE,145,1.1,1.1,78,0.00,CLR,SCT,0.00,WeatherDisplay:10.37,2013-04-25 03:58:00,
2013-04-24 23:59:00,69.8,63.0,30.15,SE,145,1.1,1.1,79,0.00,CLR,SCT,0.00,WeatherDisplay:10.37,2013-04-25 03:59:00,